Observation data for Menard on 01/17/2019      Previous  Date  Next       Current Mesonet Observations  Soil Data  Daily Summary Page  Observations in Plain Language
KMD1 170600Z 24006KT 08/08 A3016 RMK A01 T00760076  RH  100%=      5-min Rain = 0
KMD1 170601Z 24006KT 08/08 A3015 RMK A01 T00760075  RH  100%=      5-min Rain = 0
KMD1 170602Z 24006KT 08/08 A3015 RMK A01 T00760076  RH  100%=      5-min Rain = 0
KMD1 170603Z 24006KT 08/08 A3015 RMK A01 T00750075  RH  100%=      5-min Rain = 0
KMD1 170604Z 24006KT 08/08 A3015 RMK A01 T00760076  RH  100%=      5-min Rain = 0
KMD1 170605Z 24006KT 08/08 A3015 RMK A01 T00760076  RH  100%=      5-min Rain = 0
KMD1 170606Z 24006KT 08/08 A3015 RMK A01 T00760075  RH  100%=      5-min Rain = 0
KMD1 170607Z 24007KT 08/08 A3015 RMK A01 T00750075  RH  100%=      5-min Rain = 0
KMD1 170608Z 25006KT 08/08 A3015 RMK A01 T00760076  RH  100%=      5-min Rain = 0
KMD1 170609Z 25006KT 08/08 A3015 RMK A01 T00750075  RH  100%=      5-min Rain = 0
KMD1 170610Z 24007KT 08/08 A3015 RMK A01 T00750075  RH  100%=      5-min Rain = 0
KMD1 170611Z 24006KT 08/08 A3015 RMK A01 T00750075  RH  100%=      5-min Rain = 0
KMD1 170612Z 24007KT 08/08 A3015 RMK A01 T00750075  RH  100%=      5-min Rain = 0
KMD1 170613Z 24007KT 08/08 A3015 RMK A01 T00750075  RH  100%=      5-min Rain = 0
KMD1 170614Z 24006KT 08/08 A3015 RMK A01 T00760076  RH  100%=      5-min Rain = 0
KMD1 170615Z 24007KT 08/08 A3015 RMK A01 T00760076  RH  100%=      5-min Rain = 0
KMD1 170616Z 24006KT 08/08 A3015 RMK A01 T00770077  RH  100%=      5-min Rain = 0
KMD1 170617Z 25007KT 08/08 A3015 RMK A01 T00760076  RH  100%=      5-min Rain = 0
KMD1 170618Z 24006KT 08/08 A3015 RMK A01 T00760076  RH  100%=      5-min Rain = 0
KMD1 170619Z 24007KT 08/08 A3015 RMK A01 T00760076  RH  100%=      5-min Rain = 0
KMD1 170620Z 24007KT 08/08 A3015 RMK A01 T00770077  RH  100%=      5-min Rain = 0
KMD1 170621Z 24006KT 08/08 A3015 RMK A01 T00770077  RH  100%=      5-min Rain = 0
KMD1 170622Z 24007KT 08/08 A3015 RMK A01 T00770077  RH  100%=      5-min Rain = 0
KMD1 170623Z 24007KT 08/08 A3015 RMK A01 T00780078  RH  100%=      5-min Rain = 0
KMD1 170624Z 24007KT 08/08 A3015 RMK A01 T00780078  RH  100%=      5-min Rain = 0
KMD1 170625Z 24007KT 08/08 A3015 RMK A01 T00780078  RH  100%=      5-min Rain = 0
KMD1 170626Z 24007KT 08/08 A3015 RMK A01 T00770077  RH  100%=      5-min Rain = 0
KMD1 170627Z 24006KT 08/08 A3015 RMK A01 T00760076  RH  100%=      5-min Rain = 0
KMD1 170628Z 25006KT 08/08 A3014 RMK A01 T00770077  RH  100%=      5-min Rain = 0
KMD1 170629Z 24006KT 08/08 A3014 RMK A01 T00760076  RH  100%=      5-min Rain = 0
KMD1 170630Z 25006KT 08/08 A3014 RMK A01 T00760076  RH  100%=      5-min Rain = 0
KMD1 170631Z 25006KT 08/08 A3014 RMK A01 T00760076  RH  100%=      5-min Rain = 0
KMD1 170632Z 25005KT 08/08 A3014 RMK A01 T00760076  RH  100%=      5-min Rain = 0
KMD1 170633Z 25004KT 08/08 A3014 RMK A01 T00760076  RH  100%=      5-min Rain = 0
KMD1 170634Z 25005KT 08/08 A3014 RMK A01 T00750075  RH  100%=      5-min Rain = 0
KMD1 170635Z 25004KT 08/08 A3014 RMK A01 T00750075  RH  100%=      5-min Rain = 0
KMD1 170636Z 25005KT 08/08 A3014 RMK A01 T00750075  RH  100%=      5-min Rain = 0
KMD1 170637Z 26004KT 07/07 A3014 RMK A01 T00740074  RH  100%=      5-min Rain = 0
KMD1 170638Z 25004KT 07/07 A3014 RMK A01 T00740074  RH  100%=      5-min Rain = 0
KMD1 170639Z 25005KT 07/07 A3014 RMK A01 T00740074  RH  100%=      5-min Rain = 0
KMD1 170640Z 25005KT 07/07 A3014 RMK A01 T00740074  RH  100%=      5-min Rain = 0
KMD1 170641Z 25005KT 07/07 A3014 RMK A01 T00740074  RH  100%=      5-min Rain = 0
KMD1 170642Z 25005KT 07/07 A3014 RMK A01 T00740074  RH  100%=      5-min Rain = 0
KMD1 170643Z 25005KT 07/07 A3014 RMK A01 T00740074  RH  100%=      5-min Rain = 0
KMD1 170644Z 25006KT 07/07 A3014 RMK A01 T00740074  RH  100%=      5-min Rain = 0
KMD1 170645Z 25006KT 07/07 A3014 RMK A01 T00740074  RH  100%=      5-min Rain = 0
KMD1 170646Z 25005KT 07/07 A3014 RMK A01 T00740074  RH  100%=      5-min Rain = 0
KMD1 170647Z 25005KT 07/07 A3014 RMK A01 T00740074  RH  100%=      5-min Rain = 0
KMD1 170648Z 25006KT 07/07 A3014 RMK A01 T00740074  RH  100%=      5-min Rain = 0
KMD1 170649Z 26006KT 08/08 A3014 RMK A01 T00750075  RH  100%=      5-min Rain = 0
KMD1 170650Z 26005KT 08/08 A3014 RMK A01 T00750075  RH  100%=      5-min Rain = 0
KMD1 170651Z 25005KT 08/08 A3014 RMK A01 T00760076  RH  100%=      5-min Rain = 0
KMD1 170652Z 25005KT 08/08 A3014 RMK A01 T00750075  RH  100%=      5-min Rain = 0
KMD1 170653Z 25005KT 08/08 A3014 RMK A01 T00750075  RH  100%=      5-min Rain = 0
KMD1 170654Z 26005KT 08/08 A3014 RMK A01 T00760076  RH  100%=      5-min Rain = 0
KMD1 170655Z 25005KT 08/08 A3014 RMK A01 T00760076  RH  100%=      5-min Rain = 0
KMD1 170656Z 25005KT 08/08 A3014 RMK A01 T00760076  RH  100%=      5-min Rain = 0
KMD1 170657Z 25006KT 08/08 A3014 RMK A01 T00760076  RH  100%=      5-min Rain = 0
KMD1 170658Z 25005KT 08/08 A3014 RMK A01 T00750075  RH  100%=      5-min Rain = 0
KMD1 170659Z 25005KT 08/08 A3015 RMK A01 T00760076  RH  100%=      5-min Rain = 0
KMD1 170700Z 24005KT 08/08 A3015 RMK A01 T00760076  RH  100%=      5-min Rain = 0
KMD1 170701Z 24006KT 08/08 A3015 RMK A01 T00760076  RH  100%=      5-min Rain = 0
KMD1 170702Z 24006KT 08/08 A3015 RMK A01 T00760076  RH  100%=      5-min Rain = 0
KMD1 170703Z 24006KT 08/08 A3014 RMK A01 T00770077  RH  100%=      5-min Rain = 0
KMD1 170704Z 24006KT 08/08 A3014 RMK A01 T00770077  RH  100%=      5-min Rain = 0
KMD1 170705Z 24006KT 08/08 A3015 RMK A01 T00770077  RH  100%=      5-min Rain = 0
KMD1 170706Z 25006KT 08/08 A3015 RMK A01 T00780078  RH  100%=      5-min Rain = 0
KMD1 170707Z 24006KT 08/08 A3014 RMK A01 T00780078  RH  100%=      5-min Rain = 0
KMD1 170708Z 23005KT 08/08 A3014 RMK A01 T00780078  RH  100%=      5-min Rain = 0
KMD1 170709Z 24006KT 08/08 A3014 RMK A01 T00780078  RH  100%=      5-min Rain = 0
KMD1 170710Z 24006KT 08/08 A3015 RMK A01 T00780078  RH  100%=      5-min Rain = 0
KMD1 170711Z 24006KT 08/08 A3015 RMK A01 T00780078  RH  100%=      5-min Rain = 0
KMD1 170712Z 24006KT 08/08 A3015 RMK A01 T00790079  RH  100%=      5-min Rain = 0
KMD1 170713Z 24006KT 08/08 A3015 RMK A01 T00810081  RH  100%=      5-min Rain = 0
KMD1 170714Z 24007KT 08/08 A3015 RMK A01 T00820082  RH  100%=      5-min Rain = 0
KMD1 170715Z 24007KT 08/08 A3015 RMK A01 T00830083  RH  100%=      5-min Rain = 0
KMD1 170716Z 24006KT 08/08 A3014 RMK A01 T00840084  RH  100%=      5-min Rain = 0
KMD1 170717Z 24006KT 08/08 A3014 RMK A01 T00840084  RH  100%=      5-min Rain = 0
KMD1 170718Z 24007KT 08/08 A3014 RMK A01 T00840084  RH  100%=      5-min Rain = 0
KMD1 170719Z 24006KT 09/09 A3014 RMK A01 T00850085  RH  100%=      5-min Rain = 0
KMD1 170720Z 24006KT 09/09 A3014 RMK A01 T00860086  RH  100%=      5-min Rain = 0
KMD1 170721Z 24006KT 09/09 A3014 RMK A01 T00860086  RH  100%=      5-min Rain = 0
KMD1 170722Z 24006KT 09/09 A3014 RMK A01 T00870087  RH  100%=      5-min Rain = 0
KMD1 170723Z 25005KT 09/09 A3014 RMK A01 T00870087  RH  100%=      5-min Rain = 0
KMD1 170724Z 25007KT 09/09 A3014 RMK A01 T00880088  RH  100%=      5-min Rain = 0
KMD1 170725Z 25006KT 09/09 A3014 RMK A01 T00880088  RH  100%=      5-min Rain = 0
KMD1 170726Z 24006KT 09/09 A3014 RMK A01 T00880088  RH  100%=      5-min Rain = 0
KMD1 170727Z 24006KT 09/09 A3014 RMK A01 T00890089  RH  100%=      5-min Rain = 0
KMD1 170728Z 24006KT 09/09 A3014 RMK A01 T00900090  RH  100%=      5-min Rain = 0
KMD1 170729Z 24007KT 09/09 A3014 RMK A01 T00900090  RH  100%=      5-min Rain = 0
KMD1 170730Z 24007KT 09/09 A3014 RMK A01 T00910091  RH  100%=      5-min Rain = 0
KMD1 170731Z 24008KT 09/09 A3014 RMK A01 T00910091  RH  100%=      5-min Rain = 0
KMD1 170732Z 24009KT 09/09 A3014 RMK A01 T00920092  RH  100%=      5-min Rain = 0
KMD1 170733Z 24007KT 09/09 A3014 RMK A01 T00920092  RH  100%=      5-min Rain = 0
KMD1 170734Z 24007KT 09/09 A3014 RMK A01 T00920092  RH  100%=      5-min Rain = 0
KMD1 170735Z 24007KT 09/09 A3014 RMK A01 T00920092  RH  100%=      5-min Rain = 0
KMD1 170736Z 24007KT 09/09 A3014 RMK A01 T00930093  RH  100%=      5-min Rain = 0
KMD1 170737Z 24007KT 09/09 A3014 RMK A01 T00930093  RH  100%=      5-min Rain = 0
KMD1 170738Z 24006KT 09/09 A3014 RMK A01 T00930093  RH  100%=      5-min Rain = 0
KMD1 170739Z 24008KT 09/09 A3014 RMK A01 T00930093  RH  100%=      5-min Rain = 0
KMD1 170740Z 24007KT 09/09 A3014 RMK A01 T00930093  RH  100%=      5-min Rain = 0
KMD1 170741Z 24008KT 09/09 A3014 RMK A01 T00930093  RH  100%=      5-min Rain = 0
KMD1 170742Z 24009KT 09/09 A3014 RMK A01 T00930093  RH  100%=      5-min Rain = 0
KMD1 170743Z 24009KT 09/09 A3014 RMK A01 T00930093  RH  100%=      5-min Rain = 0
KMD1 170744Z 24008KT 09/09 A3015 RMK A01 T00940094  RH  100%=      5-min Rain = 0
KMD1 170745Z 24010KT 09/09 A3015 RMK A01 T00940094  RH  100%=      5-min Rain = 0
KMD1 170746Z 24009KT 09/09 A3015 RMK A01 T00940094  RH  100%=      5-min Rain = 0
KMD1 170747Z 24009KT 09/09 A3015 RMK A01 T00940094  RH  100%=      5-min Rain = 0
KMD1 170748Z 24010KT 09/09 A3015 RMK A01 T00940094  RH  100%=      5-min Rain = 0
KMD1 170749Z 25009KT 10/10 A3015 RMK A01 T00950095  RH  100%=      5-min Rain = 0
KMD1 170750Z 24008KT 09/09 A3015 RMK A01 T00940094  RH  100%=      5-min Rain = 0
KMD1 170751Z 24008KT 09/09 A3015 RMK A01 T00940094  RH  100%=      5-min Rain = 0
KMD1 170752Z 24008KT 09/09 A3015 RMK A01 T00940094  RH  100%=      5-min Rain = 0
KMD1 170753Z 24009KT 09/09 A3015 RMK A01 T00940094  RH  100%=      5-min Rain = 0
KMD1 170754Z 24007KT 09/09 A3015 RMK A01 T00940094  RH  100%=      5-min Rain = 0
KMD1 170755Z 24009KT 09/09 A3015 RMK A01 T00940094  RH  100%=      5-min Rain = 0
KMD1 170756Z 24007KT 09/09 A3015 RMK A01 T00940094  RH  100%=      5-min Rain = 0
KMD1 170757Z 24009KT 09/09 A3015 RMK A01 T00940094  RH  099%=      5-min Rain = 0
KMD1 170758Z 24010KT 09/09 A3015 RMK A01 T00940093  RH  099%=      5-min Rain = 0
KMD1 170759Z 24009KT 10/09 A3015 RMK A01 T00950094  RH  099%=      5-min Rain = 0
KMD1 170800Z 24007KT 09/09 A3015 RMK A01 T00940093  RH  099%=      5-min Rain = 0
KMD1 170801Z 23007KT 10/09 A3015 RMK A01 T00950093  RH  099%=      5-min Rain = 0
KMD1 170802Z 24007KT 09/09 A3015 RMK A01 T00940093  RH  099%=      5-min Rain = 0
KMD1 170803Z 24006KT 09/09 A3015 RMK A01 T00940093  RH  099%=      5-min Rain = 0
KMD1 170804Z 24007KT 09/09 A3015 RMK A01 T00940093  RH  099%=      5-min Rain = 0
KMD1 170805Z 24006KT 09/09 A3015 RMK A01 T00940093  RH  099%=      5-min Rain = 0
KMD1 170806Z 24006KT 09/09 A3015 RMK A01 T00940093  RH  099%=      5-min Rain = 0
KMD1 170807Z 23006KT 10/09 A3015 RMK A01 T00950093  RH  099%=      5-min Rain = 0
KMD1 170808Z 24008KT 09/09 A3015 RMK A01 T00940093  RH  099%=      5-min Rain = 0
KMD1 170809Z 24006KT 10/09 A3015 RMK A01 T00950093  RH  099%=      5-min Rain = 0
KMD1 170810Z 24005KT 10/09 A3015 RMK A01 T00950093  RH  099%=      5-min Rain = 0
KMD1 170811Z 24007KT 10/09 A3015 RMK A01 T00950093  RH  099%=      5-min Rain = 0
KMD1 170812Z 25008KT 10/09 A3015 RMK A01 T00950094  RH  099%=      5-min Rain = 0
KMD1 170813Z 24006KT 10/09 A3015 RMK A01 T00950094  RH  099%=      5-min Rain = 0
KMD1 170814Z 23007KT 10/09 A3015 RMK A01 T00950093  RH  099%=      5-min Rain = 0
KMD1 170815Z 24007KT 10/09 A3015 RMK A01 T00950093  RH  099%=      5-min Rain = 0
KMD1 170816Z 24006KT 10/09 A3015 RMK A01 T00950093  RH  099%=      5-min Rain = 0
KMD1 170817Z 24006KT 10/09 A3015 RMK A01 T00950093  RH  099%=      5-min Rain = 0
KMD1 170818Z 24007KT 10/09 A3015 RMK A01 T00950093  RH  099%=      5-min Rain = 0
KMD1 170819Z 23008KT 10/09 A3015 RMK A01 T00950093  RH  099%=      5-min Rain = 0
KMD1 170820Z 24008KT 10/09 A3015 RMK A01 T00950094  RH  099%=      5-min Rain = 0
KMD1 170821Z 24009KT 10/09 A3016 RMK A01 T00950093  RH  099%=      5-min Rain = 0
KMD1 170822Z 23008KT 10/09 A3016 RMK A01 T00950093  RH  099%=      5-min Rain = 0
KMD1 170823Z 24009KT 10/09 A3016 RMK A01 T00950093  RH  099%=      5-min Rain = 0
KMD1 170824Z 24009KT 10/09 A3016 RMK A01 T00950094  RH  099%=      5-min Rain = 0
KMD1 170825Z 24007KT 10/09 A3016 RMK A01 T00950093  RH  099%=      5-min Rain = 0
KMD1 170826Z 24007KT 10/09 A3016 RMK A01 T00960094  RH  099%=      5-min Rain = 0
KMD1 170827Z 25009KT 10/09 A3016 RMK A01 T00950094  RH  099%=      5-min Rain = 0
KMD1 170828Z 24008KT 10/09 A3016 RMK A01 T00950094  RH  099%=      5-min Rain = 0
KMD1 170829Z 25006KT 10/09 A3016 RMK A01 T00950093  RH  099%=      5-min Rain = 0
KMD1 170830Z 24006KT 10/09 A3016 RMK A01 T00950093  RH  099%=      5-min Rain = 0
KMD1 170831Z 24007KT 10/09 A3016 RMK A01 T00950093  RH  099%=      5-min Rain = 0
KMD1 170832Z 24005KT 10/09 A3016 RMK A01 T00950093  RH  099%=      5-min Rain = 0
KMD1 170833Z 24006KT 10/09 A3016 RMK A01 T00950094  RH  099%=      5-min Rain = 0
KMD1 170834Z 24004KT 10/09 A3016 RMK A01 T00950093  RH  099%=      5-min Rain = 0
KMD1 170835Z 24005KT 10/09 A3016 RMK A01 T00960094  RH  099%=      5-min Rain = 0
KMD1 170836Z 25006KT 10/09 A3016 RMK A01 T00950093  RH  099%=      5-min Rain = 0
KMD1 170837Z 24007KT 10/09 A3016 RMK A01 T00950094  RH  099%=      5-min Rain = 0
KMD1 170838Z 24008KT 10/09 A3016 RMK A01 T00950093  RH  099%=      5-min Rain = 0
KMD1 170839Z 24009KT 10/09 A3016 RMK A01 T00950093  RH  099%=      5-min Rain = 0
KMD1 170840Z 24008KT 10/09 A3016 RMK A01 T00950093  RH  099%=      5-min Rain = 0
KMD1 170841Z 24009KT 10/09 A3016 RMK A01 T00950093  RH  099%=      5-min Rain = 0
KMD1 170842Z 24008KT 10/09 A3016 RMK A01 T00960094  RH  099%=      5-min Rain = 0
KMD1 170843Z 24007KT 10/09 A3016 RMK A01 T00960094  RH  099%=      5-min Rain = 0
KMD1 170844Z 24008KT 10/09 A3016 RMK A01 T00960094  RH  099%=      5-min Rain = 0
KMD1 170845Z 24008KT 10/09 A3016 RMK A01 T00960093  RH  099%=      5-min Rain = 0
KMD1 170846Z 24007KT 10/09 A3016 RMK A01 T00960094  RH  099%=      5-min Rain = 0
KMD1 170847Z 23007KT 10/09 A3016 RMK A01 T00960094  RH  099%=      5-min Rain = 0
KMD1 170848Z 24007KT 10/09 A3016 RMK A01 T00960094  RH  099%=      5-min Rain = 0
KMD1 170849Z 24008KT 10/09 A3016 RMK A01 T00960094  RH  099%=      5-min Rain = 0
KMD1 170850Z 25008KT 10/09 A3016 RMK A01 T00960094  RH  099%=      5-min Rain = 0
KMD1 170851Z 24006KT 10/09 A3016 RMK A01 T00960094  RH  099%=      5-min Rain = 0
KMD1 170852Z 25005KT 10/09 A3016 RMK A01 T00960094  RH  099%=      5-min Rain = 0
KMD1 170853Z 25005KT 10/09 A3016 RMK A01 T00950093  RH  099%=      5-min Rain = 0
KMD1 170854Z 25007KT 10/09 A3016 RMK A01 T00950093  RH  099%=      5-min Rain = 0
KMD1 170855Z 24010KT 10/09 A3016 RMK A01 T00950093  RH  099%=      5-min Rain = 0
KMD1 170856Z 25010KT 10/09 A3016 RMK A01 T00950093  RH  099%=      5-min Rain = 0
KMD1 170857Z 25009KT 10/09 A3016 RMK A01 T00950093  RH  099%=      5-min Rain = 0
KMD1 170858Z 24010KT 10/09 A3016 RMK A01 T00950093  RH  099%=      5-min Rain = 0
KMD1 170859Z 25009KT 09/09 A3016 RMK A01 T00940092  RH  098%=      5-min Rain = 0
KMD1 170900Z 25009KT 10/09 A3016 RMK A01 T00950092  RH  099%=      5-min Rain = 0
KMD1 170901Z 25008KT 09/09 A3016 RMK A01 T00940092  RH  098%=      5-min Rain = 0
KMD1 170902Z 25008KT 09/09 A3016 RMK A01 T00940092  RH  098%=      5-min Rain = 0
KMD1 170903Z 26008KT 09/09 A3016 RMK A01 T00940092  RH  098%=      5-min Rain = 0
KMD1 170904Z 26008KT 09/09 A3016 RMK A01 T00940092  RH  098%=      5-min Rain = 0
KMD1 170905Z 26010KT 09/09 A3016 RMK A01 T00940091  RH  098%=      5-min Rain = 0
KMD1 170906Z 26008KT 09/09 A3016 RMK A01 T00930091  RH  098%=      5-min Rain = 0
KMD1 170907Z 26007KT 09/09 A3016 RMK A01 T00930091  RH  098%=      5-min Rain = 0
KMD1 170908Z 25008KT 09/09 A3016 RMK A01 T00930090  RH  098%=      5-min Rain = 0
KMD1 170909Z 25011KT 09/09 A3016 RMK A01 T00930091  RH  099%=      5-min Rain = 0
KMD1 170910Z 25009KT 09/09 A3016 RMK A01 T00920090  RH  099%=      5-min Rain = 0
KMD1 170911Z 25009KT 09/09 A3016 RMK A01 T00930091  RH  099%=      5-min Rain = 0
KMD1 170912Z 24012KT 09/09 A3016 RMK A01 T00920091  RH  099%=      5-min Rain = 0
KMD1 170913Z 25010KT 09/09 A3016 RMK A01 T00920091  RH  099%=      5-min Rain = 0
KMD1 170914Z 26009KT 09/09 A3016 RMK A01 T00930091  RH  099%=      5-min Rain = 0
KMD1 170915Z 26010KT 09/09 A3016 RMK A01 T00920090  RH  099%=      5-min Rain = 0
KMD1 170916Z 25009KT 09/09 A3016 RMK A01 T00920090  RH  099%=      5-min Rain = 0
KMD1 170917Z 25010KT 09/09 A3016 RMK A01 T00920090  RH  099%=      5-min Rain = 0
KMD1 170918Z 25010KT 09/09 A3016 RMK A01 T00920090  RH  099%=      5-min Rain = 0
KMD1 170919Z 25008KT 09/09 A3016 RMK A01 T00920090  RH  099%=      5-min Rain = 0
KMD1 170920Z 25008KT 09/09 A3016 RMK A01 T00920089  RH  099%=      5-min Rain = 0
KMD1 170921Z 25010KT 09/09 A3016 RMK A01 T00920090  RH  099%=      5-min Rain = 0
KMD1 170922Z 24009KT 09/09 A3016 RMK A01 T00920090  RH  099%=      5-min Rain = 0
KMD1 170923Z 25009KT 09/09 A3016 RMK A01 T00910090  RH  099%=      5-min Rain = 0
KMD1 170924Z 25009KT 09/09 A3016 RMK A01 T00910090  RH  099%=      5-min Rain = 0
KMD1 170925Z 24008KT 09/09 A3016 RMK A01 T00920090  RH  099%=      5-min Rain = 0
KMD1 170926Z 25009KT 09/09 A3016 RMK A01 T00920090  RH  099%=      5-min Rain = 0
KMD1 170927Z 24009KT 09/09 A3016 RMK A01 T00920090  RH  099%=      5-min Rain = 0
KMD1 170928Z 25008KT 09/09 A3016 RMK A01 T00920090  RH  099%=      5-min Rain = 0
KMD1 170929Z 25009KT 09/09 A3016 RMK A01 T00910089  RH  099%=      5-min Rain = 0
KMD1 170930Z 25008KT 09/09 A3016 RMK A01 T00910090  RH  099%=      5-min Rain = 0
KMD1 170931Z 25008KT 09/09 A3016 RMK A01 T00910090  RH  099%=      5-min Rain = 0
KMD1 170932Z 25006KT 09/09 A3016 RMK A01 T00910089  RH  099%=      5-min Rain = 0
KMD1 170933Z 25006KT 09/09 A3016 RMK A01 T00910090  RH  099%=      5-min Rain = 0
KMD1 170934Z 26007KT 09/09 A3016 RMK A01 T00910090  RH  099%=      5-min Rain = 0
KMD1 170935Z 26007KT 09/09 A3016 RMK A01 T00910089  RH  099%=      5-min Rain = 0
KMD1 170936Z 25009KT 09/09 A3016 RMK A01 T00910089  RH  099%=      5-min Rain = 0
KMD1 170937Z 25009KT 09/09 A3016 RMK A01 T00910089  RH  099%=      5-min Rain = 0
KMD1 170938Z 26008KT 09/09 A3016 RMK A01 T00900089  RH  099%=      5-min Rain = 0
KMD1 170939Z 25008KT 09/09 A3016 RMK A01 T00900089  RH  099%=      5-min Rain = 0
KMD1 170940Z 25009KT 09/09 A3016 RMK A01 T00900089  RH  099%=      5-min Rain = 0
KMD1 170941Z 25009KT 09/09 A3016 RMK A01 T00900089  RH  099%=      5-min Rain = 0
KMD1 170942Z 25009KT 09/09 A3016 RMK A01 T00900089  RH  099%=      5-min Rain = 0
KMD1 170943Z 25007KT 09/09 A3016 RMK A01 T00900089  RH  099%=      5-min Rain = 0
KMD1 170944Z 25007KT 09/09 A3016 RMK A01 T00900089  RH  099%=      5-min Rain = 0
KMD1 170945Z 24006KT 09/09 A3016 RMK A01 T00890088  RH  099%=      5-min Rain = 0
KMD1 170946Z 24008KT 09/09 A3016 RMK A01 T00900088  RH  099%=      5-min Rain = 0
KMD1 170947Z 24008KT 09/09 A3016 RMK A01 T00890088  RH  099%=      5-min Rain = 0
KMD1 170948Z 25008KT 09/09 A3016 RMK A01 T00890088  RH  099%=      5-min Rain = 0
KMD1 170949Z 24008KT 09/09 A3016 RMK A01 T00890088  RH  099%=      5-min Rain = 0
KMD1 170950Z 25008KT 09/09 A3016 RMK A01 T00890088  RH  100%=      5-min Rain = 0
KMD1 170951Z 25007KT 09/09 A3016 RMK A01 T00890088  RH  100%=      5-min Rain = 0
KMD1 170952Z 24006KT 09/09 A3016 RMK A01 T00890089  RH  100%=      5-min Rain = 0
KMD1 170953Z 24007KT 09/09 A3016 RMK A01 T00890089  RH  100%=      5-min Rain = 0
KMD1 170954Z 25005KT 09/09 A3016 RMK A01 T00890089  RH  100%=      5-min Rain = 0
KMD1 170955Z 25006KT 09/09 A3016 RMK A01 T00890089  RH  100%=      5-min Rain = 0
KMD1 170956Z 25008KT 09/09 A3016 RMK A01 T00890089  RH  100%=      5-min Rain = 0
KMD1 170957Z 26005KT 09/09 A3016 RMK A01 T00890089  RH  100%=      5-min Rain = 0
KMD1 170958Z 24006KT 09/09 A3016 RMK A01 T00890089  RH  100%=      5-min Rain = 0
KMD1 170959Z 24006KT 09/09 A3016 RMK A01 T00890089  RH  100%=      5-min Rain = 0
KMD1 171000Z 26005KT 09/09 A3016 RMK A01 T00890089  RH  100%=      5-min Rain = 0
KMD1 171001Z 25007KT 09/09 A3016 RMK A01 T00890089  RH  100%=      5-min Rain = 0
KMD1 171002Z 25007KT 09/09 A3016 RMK A01 T00890089  RH  100%=      5-min Rain = 0
KMD1 171003Z 25006KT 09/09 A3016 RMK A01 T00890089  RH  100%=      5-min Rain = 0
KMD1 171004Z 25010KT 09/09 A3016 RMK A01 T00890089  RH  100%=      5-min Rain = 0
KMD1 171005Z 25010KT 09/09 A3016 RMK A01 T00890089  RH  100%=      5-min Rain = 0
KMD1 171006Z 26007KT 09/09 A3016 RMK A01 T00890089  RH  100%=      5-min Rain = 0
KMD1 171007Z 25008KT 09/09 A3016 RMK A01 T00880088  RH  100%=      5-min Rain = 0
KMD1 171008Z 25010KT 09/09 A3016 RMK A01 T00880089  RH  100%=      5-min Rain = 0
KMD1 171009Z 25010KT 09/09 A3016 RMK A01 T00880088  RH  100%=      5-min Rain = 0
KMD1 171010Z 25011KT 09/09 A3016 RMK A01 T00880088  RH  100%=      5-min Rain = 0
KMD1 171011Z 25010KT 09/09 A3016 RMK A01 T00880088  RH  100%=      5-min Rain = 0
KMD1 171012Z 24009KT 09/09 A3016 RMK A01 T00880088  RH  100%=      5-min Rain = 0
KMD1 171013Z 25010KT 09/09 A3016 RMK A01 T00870088  RH  100%=      5-min Rain = 0
KMD1 171014Z 25008KT 09/09 A3016 RMK A01 T00870087  RH  100%=      5-min Rain = 0
KMD1 171015Z 24009KT 09/09 A3016 RMK A01 T00880088  RH  100%=      5-min Rain = 0
KMD1 171016Z 24010KT 09/09 A3016 RMK A01 T00880088  RH  100%=      5-min Rain = 0
KMD1 171017Z 24009KT 09/09 A3016 RMK A01 T00880088  RH  100%=      5-min Rain = 0
KMD1 171018Z 24009KT 09/09 A3016 RMK A01 T00870087  RH  100%=      5-min Rain = 0
KMD1 171019Z 24009KT 09/09 A3016 RMK A01 T00880088  RH  100%=      5-min Rain = 0
KMD1 171020Z 24009KT 09/09 A3016 RMK A01 T00880088  RH  100%=      5-min Rain = 0
KMD1 171021Z 24010KT 09/09 A3016 RMK A01 T00880088  RH  100%=      5-min Rain = 0
KMD1 171022Z 24010KT 09/09 A3016 RMK A01 T00880088  RH  100%=      5-min Rain = 0
KMD1 171023Z 24008KT 09/09 A3016 RMK A01 T00880088  RH  100%=      5-min Rain = 0
KMD1 171024Z 25009KT 09/09 A3016 RMK A01 T00870087  RH  100%=      5-min Rain = 0
KMD1 171025Z 24011KT 09/09 A3016 RMK A01 T00870087  RH  100%=      5-min Rain = 0
KMD1 171026Z 24010KT 09/09 A3016 RMK A01 T00870087  RH  100%=      5-min Rain = 0
KMD1 171027Z 24010KT 09/09 A3016 RMK A01 T00880088  RH  100%=      5-min Rain = 0
KMD1 171028Z 24010KT 09/09 A3015 RMK A01 T00880088  RH  100%=      5-min Rain = 0
KMD1 171029Z 24009KT 09/09 A3015 RMK A01 T00880088  RH  100%=      5-min Rain = 0
KMD1 171030Z 25010KT 09/09 A3015 RMK A01 T00880088  RH  100%=      5-min Rain = 0
KMD1 171031Z 25010KT 09/09 A3015 RMK A01 T00870087  RH  100%=      5-min Rain = 0
KMD1 171032Z 24007KT 09/09 A3015 RMK A01 T00870087  RH  100%=      5-min Rain = 0
KMD1 171033Z 25008KT 09/09 A3015 RMK A01 T00870087  RH  100%=      5-min Rain = 0
KMD1 171034Z 25010KT 09/09 A3015 RMK A01 T00870087  RH  100%=      5-min Rain = 0
KMD1 171035Z 25007KT 09/09 A3016 RMK A01 T00870087  RH  100%=      5-min Rain = 0
KMD1 171036Z 26009KT 09/09 A3016 RMK A01 T00860086  RH  100%=      5-min Rain = 0
KMD1 171037Z 26008KT 09/09 A3016 RMK A01 T00860086  RH  100%=      5-min Rain = 0
KMD1 171038Z 26006KT 09/09 A3016 RMK A01 T00860086  RH  100%=      5-min Rain = 0
KMD1 171039Z 25007KT 09/09 A3016 RMK A01 T00850085  RH  100%=      5-min Rain = 0
KMD1 171040Z 25007KT 09/09 A3016 RMK A01 T00850085  RH  100%=      5-min Rain = 0
KMD1 171041Z 25008KT 09/09 A3016 RMK A01 T00850085  RH  100%=      5-min Rain = 0
KMD1 171042Z 25009KT 09/09 A3016 RMK A01 T00850085  RH  100%=      5-min Rain = 0
KMD1 171043Z 25008KT 08/08 A3016 RMK A01 T00840084  RH  100%=      5-min Rain = 0
KMD1 171044Z 24009KT 08/08 A3016 RMK A01 T00840084  RH  100%=      5-min Rain = 0
KMD1 171045Z 25010KT 08/08 A3016 RMK A01 T00840084  RH  100%=      5-min Rain = 0
KMD1 171046Z 25011KT 08/08 A3016 RMK A01 T00840084  RH  100%=      5-min Rain = 0
KMD1 171047Z 25010KT 08/08 A3016 RMK A01 T00840084  RH  100%=      5-min Rain = 0
KMD1 171048Z 25009KT 08/08 A3016 RMK A01 T00840084  RH  100%=      5-min Rain = 0
KMD1 171049Z 25008KT 08/08 A3016 RMK A01 T00830083  RH  100%=      5-min Rain = 0
KMD1 171050Z 25007KT 08/08 A3016 RMK A01 T00830083  RH  100%=      5-min Rain = 0
KMD1 171051Z 24007KT 08/08 A3016 RMK A01 T00840084  RH  100%=      5-min Rain = 0
KMD1 171052Z 25008KT 08/08 A3016 RMK A01 T00830083  RH  100%=      5-min Rain = 0
KMD1 171053Z 25008KT 08/08 A3016 RMK A01 T00830083  RH  100%=      5-min Rain = 0
KMD1 171054Z 25009KT 08/08 A3016 RMK A01 T00830084  RH  100%=      5-min Rain = 0
KMD1 171055Z 25010KT 08/08 A3016 RMK A01 T00840084  RH  100%=      5-min Rain = 0
KMD1 171056Z 25010KT 08/08 A3016 RMK A01 T00830083  RH  100%=      5-min Rain = 0
KMD1 171057Z 25009KT 08/08 A3016 RMK A01 T00830083  RH  100%=      5-min Rain = 0
KMD1 171058Z 25010G15KT 08/08 A3016 RMK A01 T00830083  RH  100%=      5-min Rain = 0
KMD1 171059Z 25010KT 08/08 A3016 RMK A01 T00830083  RH  100%=      5-min Rain = 0
KMD1 171100Z 25007KT 08/08 A3016 RMK A01 T00830083  RH  100%=      5-min Rain = 0
KMD1 171101Z 25009KT 08/08 A3016 RMK A01 T00830083  RH  100%=      5-min Rain = 0
KMD1 171102Z 26009KT 08/08 A3016 RMK A01 T00840084  RH  100%=      5-min Rain = 0
KMD1 171103Z 25008KT 08/08 A3016 RMK A01 T00830083  RH  100%=      5-min Rain = 0
KMD1 171104Z 25008KT 08/08 A3016 RMK A01 T00830083  RH  100%=      5-min Rain = 0
KMD1 171105Z 25006KT 08/08 A3016 RMK A01 T00840084  RH  100%=      5-min Rain = 0
KMD1 171106Z 25009KT 08/08 A3016 RMK A01 T00830083  RH  100%=      5-min Rain = 0
KMD1 171107Z 25009KT 08/08 A3016 RMK A01 T00830083  RH  100%=      5-min Rain = 0
KMD1 171108Z 25009KT 08/08 A3016 RMK A01 T00830083  RH  100%=      5-min Rain = 0
KMD1 171109Z 25009KT 08/08 A3016 RMK A01 T00830083  RH  100%=      5-min Rain = 0
KMD1 171110Z 25009KT 08/08 A3016 RMK A01 T00840084  RH  100%=      5-min Rain = 0
KMD1 171111Z 24009KT 08/08 A3016 RMK A01 T00840084  RH  100%=      5-min Rain = 0
KMD1 171112Z 24009KT 08/08 A3016 RMK A01 T00840084  RH  100%=      5-min Rain = 0
KMD1 171113Z 25008KT 08/08 A3016 RMK A01 T00830083  RH  100%=      5-min Rain = 0
KMD1 171114Z 25007KT 08/08 A3016 RMK A01 T00830083  RH  100%=      5-min Rain = 0
KMD1 171115Z 25006KT 08/08 A3016 RMK A01 T00830083  RH  100%=      5-min Rain = 0
KMD1 171116Z 25006KT 08/08 A3016 RMK A01 T00840084  RH  100%=      5-min Rain = 0
KMD1 171117Z 26005KT 08/08 A3016 RMK A01 T00830083  RH  100%=      5-min Rain = 0
KMD1 171118Z 25007KT 08/08 A3016 RMK A01 T00830083  RH  100%=      5-min Rain = 0
KMD1 171119Z 25007KT 08/08 A3016 RMK A01 T00830083  RH  100%=      5-min Rain = 0
KMD1 171120Z 25007KT 08/08 A3016 RMK A01 T00830083  RH  100%=      5-min Rain = 0
KMD1 171121Z 25008KT 08/08 A3016 RMK A01 T00830083  RH  100%=      5-min Rain = 0
KMD1 171122Z 25011KT 08/08 A3016 RMK A01 T00830083  RH  100%=      5-min Rain = 0
KMD1 171123Z 25009KT 08/08 A3016 RMK A01 T00820082  RH  100%=      5-min Rain = 0
KMD1 171124Z 26006KT 08/08 A3016 RMK A01 T00820082  RH  100%=      5-min Rain = 0
KMD1 171125Z 25006KT 08/08 A3016 RMK A01 T00810081  RH  100%=      5-min Rain = 0
KMD1 171126Z 25006KT 08/08 A3016 RMK A01 T00820082  RH  100%=      5-min Rain = 0
KMD1 171127Z 25007KT 08/08 A3016 RMK A01 T00820082  RH  100%=      5-min Rain = 0
KMD1 171128Z 25007KT 08/08 A3016 RMK A01 T00820082  RH  100%=      5-min Rain = 0
KMD1 171129Z 25008KT 08/08 A3016 RMK A01 T00820082  RH  100%=      5-min Rain = 0
KMD1 171130Z 26005KT 08/08 A3016 RMK A01 T00810081  RH  100%=      5-min Rain = 0
KMD1 171131Z 25007KT 08/08 A3016 RMK A01 T00810081  RH  100%=      5-min Rain = 0
KMD1 171132Z 25008KT 08/08 A3016 RMK A01 T00810081  RH  100%=      5-min Rain = 0
KMD1 171133Z 26006KT 08/08 A3016 RMK A01 T00810081  RH  100%=      5-min Rain = 0
KMD1 171134Z 26005KT 08/08 A3016 RMK A01 T00810081  RH  100%=      5-min Rain = 0
KMD1 171135Z 26007KT 08/08 A3016 RMK A01 T00810081  RH  100%=      5-min Rain = 0
KMD1 171136Z 26007KT 08/08 A3016 RMK A01 T00800080  RH  100%=      5-min Rain = 0
KMD1 171137Z 26007KT 08/08 A3016 RMK A01 T00800080  RH  100%=      5-min Rain = 0
KMD1 171138Z 26009KT 08/08 A3016 RMK A01 T00800080  RH  100%=      5-min Rain = 0
KMD1 171139Z 26008KT 08/08 A3016 RMK A01 T00800080  RH  100%=      5-min Rain = 0
KMD1 171140Z 26008KT 08/08 A3016 RMK A01 T00800080  RH  100%=      5-min Rain = 0
KMD1 171141Z 25009KT 08/08 A3016 RMK A01 T00800080  RH  100%=      5-min Rain = 0
KMD1 171142Z 26007KT 08/08 A3016 RMK A01 T00800080  RH  100%=      5-min Rain = 0
KMD1 171143Z 26008KT 08/08 A3016 RMK A01 T00800080  RH  100%=      5-min Rain = 0
KMD1 171144Z 26008KT 08/08 A3016 RMK A01 T00800080  RH  100%=      5-min Rain = 0
KMD1 171145Z 26007KT 08/08 A3016 RMK A01 T00800080  RH  100%=      5-min Rain = 0
KMD1 171146Z 26007KT 08/08 A3016 RMK A01 T00800080  RH  100%=      5-min Rain = 0
KMD1 171147Z 26007KT 08/08 A3016 RMK A01 T00800080  RH  100%=      5-min Rain = 0
KMD1 171148Z 26006KT 08/08 A3016 RMK A01 T00800080  RH  100%=      5-min Rain = 0
KMD1 171149Z 26006KT 08/08 A3016 RMK A01 T00800080  RH  100%=      5-min Rain = 0
KMD1 171150Z 26008KT 08/08 A3016 RMK A01 T00800080  RH  100%=      5-min Rain = 0
KMD1 171151Z 25009KT 08/08 A3016 RMK A01 T00790079  RH  100%=      5-min Rain = 0
KMD1 171152Z 25008KT 08/08 A3016 RMK A01 T00790079  RH  100%=      5-min Rain = 0
KMD1 171153Z 25009KT 08/08 A3016 RMK A01 T00790079  RH  100%=      5-min Rain = 0
KMD1 171154Z 25008KT 08/08 A3016 RMK A01 T00780078  RH  100%=      5-min Rain = 0
KMD1 171155Z 25009KT 08/08 A3016 RMK A01 T00790079  RH  100%=      5-min Rain = 0
KMD1 171156Z 25009KT 08/08 A3016 RMK A01 T00780078  RH  100%=      5-min Rain = 0
KMD1 171157Z 25008KT 08/08 A3016 RMK A01 T00780078  RH  100%=      5-min Rain = 0
KMD1 171158Z 25007KT 08/08 A3016 RMK A01 T00780078  RH  100%=      5-min Rain = 0
KMD1 171159Z 25007KT 08/08 A3016 RMK A01 T00780078  RH  100%=      5-min Rain = 0
KMD1 171200Z 25008KT 08/08 A3016 RMK A01 T00780078  RH  100%=      5-min Rain = 0
KMD1 171201Z 25007KT 08/08 A3016 RMK A01 T00780078  RH  100%=      5-min Rain = 0
KMD1 171202Z 25006KT 08/08 A3016 RMK A01 T00780078  RH  100%=      5-min Rain = 0
KMD1 171203Z 25006KT 08/08 A3016 RMK A01 T00780078  RH  100%=      5-min Rain = 0
KMD1 171204Z 26008KT 08/08 A3016 RMK A01 T00780078  RH  100%=      5-min Rain = 0
KMD1 171205Z 25006KT 08/08 A3016 RMK A01 T00780078  RH  100%=      5-min Rain = 0
KMD1 171206Z 26005KT 08/08 A3016 RMK A01 T00780078  RH  100%=      5-min Rain = 0
KMD1 171207Z 25005KT 08/08 A3016 RMK A01 T00780078  RH  100%=      5-min Rain = 0
KMD1 171208Z 25006KT 08/08 A3016 RMK A01 T00780078  RH  100%=      5-min Rain = 0
KMD1 171209Z 25008KT 08/08 A3016 RMK A01 T00780078  RH  100%=      5-min Rain = 0
KMD1 171210Z 24007KT 08/08 A3016 RMK A01 T00780078  RH  100%=      5-min Rain = 0
KMD1 171211Z 25008KT 08/08 A3016 RMK A01 T00770077  RH  100%=      5-min Rain = 0
KMD1 171212Z 25008KT 08/08 A3016 RMK A01 T00770077  RH  100%=      5-min Rain = 0
KMD1 171213Z 25007KT 08/08 A3016 RMK A01 T00770077  RH  100%=      5-min Rain = 0
KMD1 171214Z 24008KT 08/08 A3016 RMK A01 T00770077  RH  100%=      5-min Rain = 0
KMD1 171215Z 24008KT 08/08 A3016 RMK A01 T00760076  RH  100%=      5-min Rain = 0
KMD1 171216Z 25007KT 08/08 A3017 RMK A01 T00760076  RH  100%=      5-min Rain = 0
KMD1 171217Z 26007KT 08/08 A3017 RMK A01 T00760076  RH  100%=      5-min Rain = 0
KMD1 171218Z 24008KT 08/08 A3017 RMK A01 T00760076  RH  100%=      5-min Rain = 0
KMD1 171219Z 24008KT 08/08 A3017 RMK A01 T00760076  RH  100%=      5-min Rain = 0
KMD1 171220Z 24008KT 08/08 A3017 RMK A01 T00760076  RH  100%=      5-min Rain = 0
KMD1 171221Z 24008KT 08/08 A3017 RMK A01 T00750075  RH  100%=      5-min Rain = 0
KMD1 171222Z 24007KT 08/08 A3017 RMK A01 T00750075  RH  100%=      5-min Rain = 0
KMD1 171223Z 24007KT 08/08 A3017 RMK A01 T00760076  RH  100%=      5-min Rain = 0
KMD1 171224Z 24007KT 08/08 A3017 RMK A01 T00750075  RH  100%=      5-min Rain = 0
KMD1 171225Z 24008KT 08/08 A3017 RMK A01 T00750075  RH  100%=      5-min Rain = 0
KMD1 171226Z 24006KT 08/08 A3017 RMK A01 T00750075  RH  100%=      5-min Rain = 0
KMD1 171227Z 24006KT 08/08 A3017 RMK A01 T00750075  RH  100%=      5-min Rain = 0
KMD1 171228Z 24007KT 08/08 A3017 RMK A01 T00750075  RH  100%=      5-min Rain = 0
KMD1 171229Z 24008KT 08/08 A3017 RMK A01 T00750075  RH  100%=      5-min Rain = 0
KMD1 171230Z 24008KT 08/08 A3017 RMK A01 T00750075  RH  100%=      5-min Rain = 0
KMD1 171231Z 25007KT 08/08 A3017 RMK A01 T00750075  RH  100%=      5-min Rain = 0
KMD1 171232Z 24007KT 08/08 A3017 RMK A01 T00750075  RH  100%=      5-min Rain = 0
KMD1 171233Z 24006KT 08/08 A3017 RMK A01 T00750075  RH  100%=      5-min Rain = 0
KMD1 171234Z 25006KT 08/08 A3017 RMK A01 T00750075  RH  100%=      5-min Rain = 0
KMD1 171235Z 25006KT 07/07 A3017 RMK A01 T00740074  RH  100%=      5-min Rain = 0
KMD1 171236Z 25007KT 08/08 A3017 RMK A01 T00750075  RH  100%=      5-min Rain = 0
KMD1 171237Z 25007KT 08/08 A3017 RMK A01 T00750075  RH  100%=      5-min Rain = 0
KMD1 171238Z 25006KT 07/07 A3017 RMK A01 T00740074  RH  100%=      5-min Rain = 0
KMD1 171239Z 24006KT 08/08 A3017 RMK A01 T00750075  RH  100%=      5-min Rain = 0
KMD1 171240Z 25005KT 08/08 A3017 RMK A01 T00750075  RH  100%=      5-min Rain = 0
KMD1 171241Z 25006KT 08/08 A3017 RMK A01 T00750075  RH  100%=      5-min Rain = 0
KMD1 171242Z 25005KT 08/08 A3017 RMK A01 T00750075  RH  100%=      5-min Rain = 0
KMD1 171243Z 25006KT 08/08 A3017 RMK A01 T00750075  RH  100%=      5-min Rain = 0
KMD1 171244Z 25005KT 07/07 A3017 RMK A01 T00740074  RH  100%=      5-min Rain = 0
KMD1 171245Z 25005KT 08/08 A3017 RMK A01 T00750075  RH  100%=      5-min Rain = 0
KMD1 171246Z 24004KT 08/08 A3017 RMK A01 T00750075  RH  100%=      5-min Rain = 0
KMD1 171247Z 25004KT 08/08 A3017 RMK A01 T00750075  RH  100%=      5-min Rain = 0
KMD1 171248Z 25003KT 08/08 A3017 RMK A01 T00750075  RH  100%=      5-min Rain = 0
KMD1 171249Z 26005KT 08/08 A3017 RMK A01 T00750075  RH  100%=      5-min Rain = 0
KMD1 171250Z 25008KT 07/07 A3017 RMK A01 T00740074  RH  100%=      5-min Rain = 0
KMD1 171251Z 26007KT 07/07 A3017 RMK A01 T00740074  RH  100%=      5-min Rain = 0
KMD1 171252Z 27006KT 07/07 A3018 RMK A01 T00740074  RH  100%=      5-min Rain = 0
KMD1 171253Z 26007KT 07/07 A3018 RMK A01 T00730073  RH  100%=      5-min Rain = 0
KMD1 171254Z 26006KT 07/07 A3018 RMK A01 T00730073  RH  100%=      5-min Rain = 0
KMD1 171255Z 25006KT 07/07 A3018 RMK A01 T00730073  RH  100%=      5-min Rain = 0
KMD1 171256Z 25006KT 07/07 A3018 RMK A01 T00730073  RH  100%=      5-min Rain = 0
KMD1 171257Z 25006KT 07/07 A3018 RMK A01 T00730073  RH  100%=      5-min Rain = 0
KMD1 171258Z 24007KT 07/07 A3018 RMK A01 T00730073  RH  100%=      5-min Rain = 0
KMD1 171259Z 25007KT 07/07 A3018 RMK A01 T00730073  RH  100%=      5-min Rain = 0
KMD1 171300Z 25006KT 07/07 A3018 RMK A01 T00730073  RH  100%=      5-min Rain = 0
KMD1 171301Z 25008KT 07/07 A3018 RMK A01 T00730073  RH  100%=      5-min Rain = 0
KMD1 171302Z 26008KT 07/07 A3018 RMK A01 T00730073  RH  100%=      5-min Rain = 0
KMD1 171303Z 25007KT 07/07 A3018 RMK A01 T00720072  RH  100%=      5-min Rain = 0
KMD1 171304Z 26008KT 07/07 A3018 RMK A01 T00730073  RH  100%=      5-min Rain = 0
KMD1 171305Z 26007KT 07/07 A3018 RMK A01 T00720072  RH  100%=      5-min Rain = 0
KMD1 171306Z 25009KT 07/07 A3018 RMK A01 T00720072  RH  100%=      5-min Rain = 0
KMD1 171307Z 26007KT 07/07 A3018 RMK A01 T00720072  RH  100%=      5-min Rain = 0
KMD1 171308Z 26007KT 07/07 A3018 RMK A01 T00720072  RH  100%=      5-min Rain = 0
KMD1 171309Z 26005KT 07/07 A3018 RMK A01 T00720072  RH  100%=      5-min Rain = 0
KMD1 171310Z 26005KT 07/07 A3018 RMK A01 T00720072  RH  100%=      5-min Rain = 0
KMD1 171311Z 27004KT 07/07 A3018 RMK A01 T00720072  RH  100%=      5-min Rain = 0
KMD1 171312Z 27005KT 07/07 A3018 RMK A01 T00710071  RH  100%=      5-min Rain = 0
KMD1 171313Z 26006KT 07/07 A3019 RMK A01 T00710071  RH  100%=      5-min Rain = 0
KMD1 171314Z 26007KT 07/07 A3019 RMK A01 T00720071  RH  100%=      5-min Rain = 0
KMD1 171315Z 26006KT 07/07 A3019 RMK A01 T00710071  RH  100%=      5-min Rain = 0
KMD1 171316Z 26008KT 07/07 A3019 RMK A01 T00710071  RH  100%=      5-min Rain = 0
KMD1 171317Z 26009KT 07/07 A3019 RMK A01 T00710071  RH  100%=      5-min Rain = 0
KMD1 171318Z 26009KT 07/07 A3019 RMK A01 T00710071  RH  100%=      5-min Rain = 0
KMD1 171319Z 26008KT 07/07 A3019 RMK A01 T00710071  RH  100%=      5-min Rain = 0
KMD1 171320Z 26008KT 07/07 A3019 RMK A01 T00710071  RH  100%=      5-min Rain = 0
KMD1 171321Z 25008KT 07/07 A3019 RMK A01 T00710071  RH  100%=      5-min Rain = 0
KMD1 171322Z 26007KT 07/07 A3019 RMK A01 T00700070  RH  100%=      5-min Rain = 0
KMD1 171323Z 26006KT 07/07 A3019 RMK A01 T00710071  RH  100%=      5-min Rain = 0
KMD1 171324Z 26004KT 07/07 A3019 RMK A01 T00710071  RH  100%=      5-min Rain = 0
KMD1 171325Z 27005KT 07/07 A3019 RMK A01 T00710071  RH  100%=      5-min Rain = 0
KMD1 171326Z 28005KT 07/07 A3019 RMK A01 T00700070  RH  100%=      5-min Rain = 0
KMD1 171327Z 27004KT 07/07 A3019 RMK A01 T00710071  RH  100%=      5-min Rain = 0
KMD1 171328Z 28005KT 07/07 A3019 RMK A01 T00700070  RH  100%=      5-min Rain = 0
KMD1 171329Z 28007KT 07/07 A3019 RMK A01 T00700070  RH  100%=      5-min Rain = 0
KMD1 171330Z 27006KT 07/07 A3019 RMK A01 T00700070  RH  100%=      5-min Rain = 0
KMD1 171331Z 27006KT 07/07 A3019 RMK A01 T00690069  RH  100%=      5-min Rain = 0
KMD1 171332Z 27007KT 07/07 A3019 RMK A01 T00690069  RH  100%=      5-min Rain = 0
KMD1 171333Z 27007KT 07/07 A3019 RMK A01 T00690069  RH  100%=      5-min Rain = 0
KMD1 171334Z 27007KT 07/07 A3019 RMK A01 T00680068  RH  100%=      5-min Rain = 0
KMD1 171335Z 27006KT 07/07 A3019 RMK A01 T00680068  RH  100%=      5-min Rain = 0
KMD1 171336Z 27007KT 07/07 A3019 RMK A01 T00680068  RH  100%=      5-min Rain = 0
KMD1 171337Z 27007KT 07/07 A3019 RMK A01 T00680068  RH  100%=      5-min Rain = 0
KMD1 171338Z 27007KT 07/07 A3019 RMK A01 T00680068  RH  100%=      5-min Rain = 0
KMD1 171339Z 27006KT 07/07 A3019 RMK A01 T00680068  RH  100%=      5-min Rain = 0
KMD1 171340Z 26006KT 07/07 A3019 RMK A01 T00680068  RH  100%=      5-min Rain = 0
KMD1 171341Z 27006KT 07/07 A3019 RMK A01 T00670067  RH  100%=      5-min Rain = 0
KMD1 171342Z 27007KT 07/07 A3019 RMK A01 T00680068  RH  100%=      5-min Rain = 0
KMD1 171343Z 27007KT 07/07 A3019 RMK A01 T00670067  RH  100%=      5-min Rain = 0
KMD1 171344Z 26007KT 07/07 A3019 RMK A01 T00670067  RH  100%=      5-min Rain = 0
KMD1 171345Z 27007KT 07/07 A3019 RMK A01 T00670067  RH  100%=      5-min Rain = 0
KMD1 171346Z 26007KT 07/07 A3019 RMK A01 T00670067  RH  100%=      5-min Rain = 0
KMD1 171347Z 26007KT 07/07 A3019 RMK A01 T00670067  RH  100%=      5-min Rain = 0
KMD1 171348Z 26007KT 07/07 A3019 RMK A01 T00670067  RH  100%=      5-min Rain = 0
KMD1 171349Z 27007KT 07/07 A3019 RMK A01 T00670067  RH  100%=      5-min Rain = 0
KMD1 171350Z 26006KT 07/07 A3019 RMK A01 T00670067  RH  100%=      5-min Rain = 0
KMD1 171351Z 27006KT 07/07 A3019 RMK A01 T00670067  RH  100%=      5-min Rain = 0
KMD1 171352Z 27005KT 07/07 A3019 RMK A01 T00670066  RH  100%=      5-min Rain = 0
KMD1 171353Z 26006KT 07/07 A3019 RMK A01 T00660066  RH  100%=      5-min Rain = 0
KMD1 171354Z 25005KT 07/07 A3019 RMK A01 T00670067  RH  100%=      5-min Rain = 0
KMD1 171355Z 26004KT 07/07 A3019 RMK A01 T00660066  RH  100%=      5-min Rain = 0
KMD1 171356Z 26007KT 07/07 A3019 RMK A01 T00660066  RH  100%=      5-min Rain = 0
KMD1 171357Z 25008KT 07/07 A3019 RMK A01 T00660066  RH  100%=      5-min Rain = 0
KMD1 171358Z 25007KT 07/07 A3019 RMK A01 T00660066  RH  100%=      5-min Rain = 0
KMD1 171359Z 25008KT 07/07 A3019 RMK A01 T00660066  RH  100%=      5-min Rain = 0
KMD1 171400Z 25007KT 07/07 A3019 RMK A01 T00660066  RH  100%=      5-min Rain = 0
KMD1 171401Z 25006KT 07/07 A3019 RMK A01 T00660066  RH  100%=      5-min Rain = 0
KMD1 171402Z 25007KT 07/07 A3019 RMK A01 T00660066  RH  100%=      5-min Rain = 0
KMD1 171403Z 25008KT 07/07 A3019 RMK A01 T00660066  RH  100%=      5-min Rain = 0
KMD1 171404Z 25008KT 07/07 A3019 RMK A01 T00660066  RH  100%=      5-min Rain = 0
KMD1 171405Z 25007KT 07/07 A3019 RMK A01 T00650065  RH  100%=      5-min Rain = 0
KMD1 171406Z 25007KT 07/07 A3019 RMK A01 T00650065  RH  100%=      5-min Rain = 0
KMD1 171407Z 25008KT 07/07 A3019 RMK A01 T00650065  RH  100%=      5-min Rain = 0
KMD1 171408Z 25008KT 07/07 A3019 RMK A01 T00650065  RH  100%=      5-min Rain = 0
KMD1 171409Z 26008KT 07/07 A3019 RMK A01 T00650065  RH  100%=      5-min Rain = 0
KMD1 171410Z 26008KT 07/07 A3019 RMK A01 T00650065  RH  100%=      5-min Rain = 0
KMD1 171411Z 25008KT 07/07 A302 RMK A01 T00650065  RH  100%=      5-min Rain = 0
KMD1 171412Z 25007KT 07/07 A302 RMK A01 T00650065  RH  100%=      5-min Rain = 0
KMD1 171413Z 25006KT 07/07 A302 RMK A01 T00650065  RH  100%=      5-min Rain = 0
KMD1 171414Z 26007KT 07/07 A302 RMK A01 T00650065  RH  100%=      5-min Rain = 0
KMD1 171415Z 26006KT 07/07 A302 RMK A01 T00650065  RH  100%=      5-min Rain = 0
KMD1 171416Z 26006KT 07/07 A302 RMK A01 T00650065  RH  100%=      5-min Rain = 0
KMD1 171417Z 26006KT 07/07 A302 RMK A01 T00650065  RH  100%=      5-min Rain = 0
KMD1 171418Z 26008KT 07/07 A302 RMK A01 T00650065  RH  100%=      5-min Rain = 0
KMD1 171419Z 26009KT 07/07 A302 RMK A01 T00650065  RH  100%=      5-min Rain = 0
KMD1 171420Z 25008KT 07/07 A302 RMK A01 T00650065  RH  100%=      5-min Rain = 0
KMD1 171421Z 25009KT 07/07 A302 RMK A01 T00650065  RH  100%=      5-min Rain = 0
KMD1 171422Z 25008KT 07/07 A302 RMK A01 T00650065  RH  100%=      5-min Rain = 0
KMD1 171423Z 25008KT 06/06 A302 RMK A01 T00640064  RH  100%=      5-min Rain = 0
KMD1 171424Z 25007KT 07/07 A302 RMK A01 T00650065  RH  100%=      5-min Rain = 0
KMD1 171425Z 25006KT 06/06 A302 RMK A01 T00640064  RH  100%=      5-min Rain = 0
KMD1 171426Z 25006KT 06/06 A302 RMK A01 T00640064  RH  100%=      5-min Rain = 0
KMD1 171427Z 25007KT 06/06 A302 RMK A01 T00640064  RH  100%=      5-min Rain = 0
KMD1 171428Z 26006KT 07/07 A302 RMK A01 T00650065  RH  100%=      5-min Rain = 0
KMD1 171429Z 26006KT 07/07 A302 RMK A01 T00650065  RH  100%=      5-min Rain = 0
KMD1 171430Z 25006KT 07/07 A302 RMK A01 T00650065  RH  100%=      5-min Rain = 0
KMD1 171431Z 25006KT 07/07 A302 RMK A01 T00650065  RH  100%=      5-min Rain = 0
KMD1 171432Z 25006KT 07/07 A302 RMK A01 T00650065  RH  100%=      5-min Rain = 0
KMD1 171433Z 25006KT 07/07 A302 RMK A01 T00650065  RH  100%=      5-min Rain = 0
KMD1 171434Z 25006KT 07/07 A302 RMK A01 T00650065  RH  100%=      5-min Rain = 0
KMD1 171435Z 25006KT 07/07 A302 RMK A01 T00650065  RH  100%=      5-min Rain = 0
KMD1 171436Z 25007KT 07/07 A302 RMK A01 T00660065  RH  100%=      5-min Rain = 0
KMD1 171437Z 25008KT 07/07 A302 RMK A01 T00650065  RH  100%=      5-min Rain = 0
KMD1 171438Z 26007KT 07/07 A302 RMK A01 T00650065  RH  100%=      5-min Rain = 0
KMD1 171439Z 26007KT 07/07 A302 RMK A01 T00650065  RH  100%=      5-min Rain = 0
KMD1 171440Z 26007KT 07/07 A302 RMK A01 T00650065  RH  100%=      5-min Rain = 0
KMD1 171441Z 25007KT 06/06 A302 RMK A01 T00640064  RH  100%=      5-min Rain = 0
KMD1 171442Z 26005KT 06/06 A302 RMK A01 T00640064  RH  100%=      5-min Rain = 0
KMD1 171443Z 26006KT 06/06 A302 RMK A01 T00640064  RH  100%=      5-min Rain = 0
KMD1 171444Z 25005KT 06/06 A302 RMK A01 T00640064  RH  100%=      5-min Rain = 0
KMD1 171445Z 26005KT 06/06 A302 RMK A01 T00640064  RH  100%=      5-min Rain = 0
KMD1 171446Z 26006KT 06/06 A302 RMK A01 T00640064  RH  100%=      5-min Rain = 0
KMD1 171447Z 26007KT 06/06 A302 RMK A01 T00640064  RH  100%=      5-min Rain = 0
KMD1 171448Z 27005KT 06/06 A302 RMK A01 T00640064  RH  100%=      5-min Rain = 0
KMD1 171449Z 26006KT 06/06 A302 RMK A01 T00640064  RH  100%=      5-min Rain = 0
KMD1 171450Z 26004KT 06/06 A302 RMK A01 T00630063  RH  100%=      5-min Rain = 0
KMD1 171451Z 26004KT 06/06 A302 RMK A01 T00640064  RH  100%=      5-min Rain = 0
KMD1 171452Z 25006KT 07/07 A302 RMK A01 T00650065  RH  100%=      5-min Rain = 0
KMD1 171453Z 25007KT 07/07 A302 RMK A01 T00650065  RH  100%=      5-min Rain = 0
KMD1 171454Z 25006KT 07/07 A302 RMK A01 T00650065  RH  100%=      5-min Rain = 0
KMD1 171455Z 25007KT 06/06 A302 RMK A01 T00640064  RH  100%=      5-min Rain = 0
KMD1 171456Z 25008KT 07/07 A302 RMK A01 T00650065  RH  100%=      5-min Rain = 0
KMD1 171457Z 25006KT 06/06 A302 RMK A01 T00640064  RH  100%=      5-min Rain = 0
KMD1 171458Z 25007KT 06/06 A302 RMK A01 T00640064  RH  100%=      5-min Rain = 0
KMD1 171459Z 25007KT 06/06 A3021 RMK A01 T00630063  RH  100%=      5-min Rain = 0
KMD1 171500Z 25007KT 06/06 A3021 RMK A01 T00630063  RH  100%=      5-min Rain = 0
KMD1 171501Z 25007KT 06/06 A3021 RMK A01 T00630063  RH  100%=      5-min Rain = 0
KMD1 171502Z 25007KT 06/06 A3021 RMK A01 T00630063  RH  100%=      5-min Rain = 0
KMD1 171503Z 25008KT 06/06 A3021 RMK A01 T00630063  RH  100%=      5-min Rain = 0
KMD1 171504Z 26008KT 06/06 A3021 RMK A01 T00630063  RH  100%=      5-min Rain = 0
KMD1 171505Z 25007KT 06/06 A3021 RMK A01 T00630063  RH  100%=      5-min Rain = 0
KMD1 171506Z 26007KT 06/06 A3021 RMK A01 T00630063  RH  100%=      5-min Rain = 0
KMD1 171507Z 25008KT 06/06 A3021 RMK A01 T00640064  RH  100%=      5-min Rain = 0
KMD1 171508Z 25007KT 06/06 A3021 RMK A01 T00640064  RH  100%=      5-min Rain = 0
KMD1 171509Z 25006KT 07/07 A3021 RMK A01 T00650065  RH  100%=      5-min Rain = 0
KMD1 171510Z 26008KT 07/07 A3021 RMK A01 T00660066  RH  100%=      5-min Rain = 0
KMD1 171511Z 25006KT 07/07 A3021 RMK A01 T00670067  RH  100%=      5-min Rain = 0
KMD1 171512Z 26007KT 07/07 A3021 RMK A01 T00680068  RH  100%=      5-min Rain = 0
KMD1 171513Z 25007KT 07/07 A3021 RMK A01 T00690069  RH  100%=      5-min Rain = 0
KMD1 171514Z 25006KT 07/07 A3021 RMK A01 T00690069  RH  100%=      5-min Rain = 0
KMD1 171515Z 25006KT 07/07 A3021 RMK A01 T00700070  RH  100%=      5-min Rain = 0
KMD1 171516Z 25007KT 07/07 A3021 RMK A01 T00710071  RH  100%=      5-min Rain = 0
KMD1 171517Z 25007KT 07/07 A3021 RMK A01 T00710071  RH  100%=      5-min Rain = 0
KMD1 171518Z 25007KT 07/07 A3021 RMK A01 T00710071  RH  100%=      5-min Rain = 0
KMD1 171519Z 25007KT 07/07 A3021 RMK A01 T00720072  RH  100%=      5-min Rain = 0
KMD1 171520Z 25009KT 07/07 A3021 RMK A01 T00720072  RH  100%=      5-min Rain = 0
KMD1 171521Z 25007KT 07/07 A3021 RMK A01 T00720072  RH  100%=      5-min Rain = 0
KMD1 171522Z 25008KT 07/07 A3021 RMK A01 T00720072  RH  100%=      5-min Rain = 0
KMD1 171523Z 26008KT 07/07 A3021 RMK A01 T00730073  RH  100%=      5-min Rain = 0
KMD1 171524Z 25008KT 07/07 A3021 RMK A01 T00730073  RH  100%=      5-min Rain = 0
KMD1 171525Z 25007KT 07/07 A3021 RMK A01 T00740074  RH  099%=      5-min Rain = 0
KMD1 171526Z 25007KT 08/07 A3021 RMK A01 T00760074  RH  099%=      5-min Rain = 0
KMD1 171527Z 25007KT 08/07 A3021 RMK A01 T00760073  RH  098%=      5-min Rain = 0
KMD1 171528Z 25006KT 08/07 A3021 RMK A01 T00760073  RH  097%=      5-min Rain = 0
KMD1 171529Z 26007KT 08/07 A3021 RMK A01 T00780073  RH  097%=      5-min Rain = 0
KMD1 171530Z 25007KT 08/07 A3022 RMK A01 T00780072  RH  096%=      5-min Rain = 0
KMD1 171531Z 25006KT 08/07 A3021 RMK A01 T00790073  RH  096%=      5-min Rain = 0
KMD1 171532Z 25007KT 08/07 A3021 RMK A01 T00800073  RH  095%=      5-min Rain = 0
KMD1 171533Z 25007KT 08/07 A3021 RMK A01 T00810073  RH  094%=      5-min Rain = 0
KMD1 171534Z 26006KT 08/07 A3021 RMK A01 T00820072  RH  094%=      5-min Rain = 0
KMD1 171535Z 25006KT 08/07 A3022 RMK A01 T00820072  RH  093%=      5-min Rain = 0
KMD1 171536Z 25007KT 08/07 A3021 RMK A01 T00840074  RH  093%=      5-min Rain = 0
KMD1 171537Z 25006KT 08/07 A3021 RMK A01 T00840071  RH  092%=      5-min Rain = 0
KMD1 171538Z 26005KT 09/07 A3021 RMK A01 T00850072  RH  092%=      5-min Rain = 0
KMD1 171539Z 25007KT 09/07 A3021 RMK A01 T00850071  RH  091%=      5-min Rain = 0
KMD1 171540Z 25006KT 09/07 A3021 RMK A01 T00860072  RH  091%=      5-min Rain = 0
KMD1 171541Z 25005KT 09/07 A3022 RMK A01 T00860072  RH  091%=      5-min Rain = 0
KMD1 171542Z 26004KT 09/08 A3021 RMK A01 T00880076  RH  092%=      5-min Rain = 0
KMD1 171543Z 26005KT 09/08 A3022 RMK A01 T00900077  RH  091%=      5-min Rain = 0
KMD1 171544Z 27007KT 09/08 A3022 RMK A01 T00910075  RH  090%=      5-min Rain = 0
KMD1 171545Z 27007KT 09/07 A3021 RMK A01 T00910072  RH  088%=      5-min Rain = 0
KMD1 171546Z 28006KT 09/07 A3021 RMK A01 T00910069  RH  086%=      5-min Rain = 0
KMD1 171547Z 27007KT 09/07 A3021 RMK A01 T00910070  RH  087%=      5-min Rain = 0
KMD1 171548Z 27006KT 09/07 A3021 RMK A01 T00920070  RH  086%=      5-min Rain = 0
KMD1 171549Z 27006KT 09/07 A3021 RMK A01 T00940071  RH  085%=      5-min Rain = 0
KMD1 171550Z 27004KT 09/07 A3021 RMK A01 T00940069  RH  084%=      5-min Rain = 0
KMD1 171551Z 26004KT 09/07 A3021 RMK A01 T00940071  RH  085%=      5-min Rain = 0
KMD1 171552Z 27005KT 10/08 A3021 RMK A01 T00970076  RH  087%=      5-min Rain = 0
KMD1 171553Z 29005KT 10/08 A3021 RMK A01 T00990075  RH  085%=      5-min Rain = 0
KMD1 171554Z 28005KT 10/07 A3021 RMK A01 T01000073  RH  084%=      5-min Rain = 0
KMD1 171555Z 28005KT 10/07 A3021 RMK A01 T01000073  RH  083%=      5-min Rain = 0
KMD1 171556Z 26005KT 10/07 A3021 RMK A01 T01010074  RH  084%=      5-min Rain = 0
KMD1 171557Z 27005KT 10/08 A3021 RMK A01 T01020075  RH  083%=      5-min Rain = 0
KMD1 171558Z 26004KT 10/07 A3021 RMK A01 T01030073  RH  082%=      5-min Rain = 0
KMD1 171559Z 27002KT 10/07 A3021 RMK A01 T01030074  RH  082%=      5-min Rain = 0
KMD1 171600Z 27004KT 11/08 A3021 RMK A01 T01050076  RH  082%=      5-min Rain = 0
KMD1 171601Z 27005KT 11/07 A3021 RMK A01 T01060074  RH  081%=      5-min Rain = 0
KMD1 171602Z 26005KT 11/07 A3021 RMK A01 T01070073  RH  080%=      5-min Rain = 0
KMD1 171603Z 26005KT 11/07 A3021 RMK A01 T01080074  RH  080%=      5-min Rain = 0
KMD1 171604Z 26006KT 11/08 A3021 RMK A01 T01090076  RH  080%=      5-min Rain = 0
KMD1 171605Z 25005KT 11/08 A3021 RMK A01 T01110080  RH  081%=      5-min Rain = 0
KMD1 171606Z 26005KT 11/08 A3021 RMK A01 T01120076  RH  078%=      5-min Rain = 0
KMD1 171607Z 25005KT 11/07 A3021 RMK A01 T01120072  RH  076%=      5-min Rain = 0
KMD1 171608Z 26004KT 11/07 A3021 RMK A01 T01120073  RH  077%=      5-min Rain = 0
KMD1 171609Z 25003KT 11/08 A3021 RMK A01 T01130075  RH  078%=      5-min Rain = 0
KMD1 171610Z 24003KT 12/08 A3021 RMK A01 T01150077  RH  078%=      5-min Rain = 0
KMD1 171611Z 25004KT 12/08 A3021 RMK A01 T01160080  RH  079%=      5-min Rain = 0
KMD1 171612Z 24004KT 12/08 A3021 RMK A01 T01170079  RH  077%=      5-min Rain = 0
KMD1 171613Z 25005KT 12/08 A3021 RMK A01 T01180076  RH  075%=      5-min Rain = 0
KMD1 171614Z 24004KT 12/08 A3021 RMK A01 T01180076  RH  076%=      5-min Rain = 0
KMD1 171615Z 24003KT 12/08 A3021 RMK A01 T01180077  RH  076%=      5-min Rain = 0
KMD1 171616Z 25004KT 12/08 A3021 RMK A01 T01190078  RH  076%=      5-min Rain = 0
KMD1 171617Z 24005KT 12/08 A3021 RMK A01 T01200079  RH  076%=      5-min Rain = 0
KMD1 171618Z 24005KT 12/08 A3021 RMK A01 T01210076  RH  074%=      5-min Rain = 0
KMD1 171619Z 24005KT 12/08 A3021 RMK A01 T01210076  RH  074%=      5-min Rain = 0
KMD1 171620Z 23004KT 12/08 A3021 RMK A01 T01210075  RH  074%=      5-min Rain = 0
KMD1 171621Z 23005KT 12/08 A3021 RMK A01 T01230079  RH  075%=      5-min Rain = 0
KMD1 171622Z 24004KT 12/08 A3021 RMK A01 T01240075  RH  072%=      5-min Rain = 0
KMD1 171623Z 24004KT 13/08 A3022 RMK A01 T01250078  RH  073%=      5-min Rain = 0
KMD1 171624Z 23003KT 13/08 A3022 RMK A01 T01250077  RH  072%=      5-min Rain = 0
KMD1 171625Z 23004KT 13/08 A3022 RMK A01 T01270079  RH  073%=      5-min Rain = 0
KMD1 171626Z 23004KT 13/08 A3022 RMK A01 T01280077  RH  071%=      5-min Rain = 0
KMD1 171627Z 22004KT 13/08 A3022 RMK A01 T01280080  RH  072%=      5-min Rain = 0
KMD1 171628Z 24005KT 13/08 A3022 RMK A01 T01290080  RH  072%=      5-min Rain = 0
KMD1 171629Z 23005KT 13/08 A3022 RMK A01 T01290079  RH  071%=      5-min Rain = 0
KMD1 171630Z 23005KT 13/08 A3022 RMK A01 T01300079  RH  071%=      5-min Rain = 0
KMD1 171631Z 24005KT 13/08 A3022 RMK A01 T01310081  RH  072%=      5-min Rain = 0
KMD1 171632Z 25005KT 13/08 A3022 RMK A01 T01320077  RH  069%=      5-min Rain = 0
KMD1 171633Z 24004KT 13/08 A3022 RMK A01 T01330078  RH  069%=      5-min Rain = 0
KMD1 171634Z 24003KT 13/08 A3022 RMK A01 T01330077  RH  069%=      5-min Rain = 0
KMD1 171635Z 24004KT 13/08 A3022 RMK A01 T01340078  RH  069%=      5-min Rain = 0
KMD1 171636Z 24004KT 14/08 A3022 RMK A01 T01350079  RH  069%=      5-min Rain = 0
KMD1 171637Z 24005KT 14/08 A3022 RMK A01 T01360077  RH  068%=      5-min Rain = 0
KMD1 171638Z 25004KT 14/08 A3022 RMK A01 T01360077  RH  068%=      5-min Rain = 0
KMD1 171639Z 24003KT 14/08 A3022 RMK A01 T01380080  RH  068%=      5-min Rain = 0
KMD1 171640Z 24004KT 14/08 A3022 RMK A01 T01400082  RH  068%=      5-min Rain = 0
KMD1 171641Z 24004KT 14/08 A3022 RMK A01 T01400077  RH  066%=      5-min Rain = 0
KMD1 171642Z 23004KT 14/08 A3022 RMK A01 T01400078  RH  066%=      5-min Rain = 0
KMD1 171643Z 23004KT 14/08 A3022 RMK A01 T01400078  RH  066%=      5-min Rain = 0
KMD1 171644Z 24005KT 14/08 A3022 RMK A01 T01410080  RH  067%=      5-min Rain = 0
KMD1 171645Z 24004KT 14/08 A3022 RMK A01 T01430080  RH  066%=      5-min Rain = 0
KMD1 171646Z 22005KT 14/08 A3021 RMK A01 T01430080  RH  066%=      5-min Rain = 0
KMD1 171647Z 23005KT 14/08 A3021 RMK A01 T01440078  RH  064%=      5-min Rain = 0
KMD1 171648Z 23004KT 14/08 A3021 RMK A01 T01440076  RH  064%=      5-min Rain = 0
KMD1 171649Z 23003KT 14/08 A3021 RMK A01 T01440077  RH  064%=      5-min Rain = 0
KMD1 171650Z 22004KT 15/08 A3021 RMK A01 T01450076  RH  063%=      5-min Rain = 0
KMD1 171651Z 22004KT 15/07 A3021 RMK A01 T01460074  RH  062%=      5-min Rain = 0
KMD1 171652Z 23003KT 15/08 A3021 RMK A01 T01470077  RH  063%=      5-min Rain = 0
KMD1 171653Z 25001KT 15/08 A3021 RMK A01 T01490081  RH  064%=      5-min Rain = 0
KMD1 171654Z 23002KT 15/08 A3021 RMK A01 T01520080  RH  062%=      5-min Rain = 0
KMD1 171655Z 25003KT 15/08 A3021 RMK A01 T01540080  RH  061%=      5-min Rain = 0
KMD1 171656Z 29002KT 16/08 A3021 RMK A01 T01570079  RH  059%=      5-min Rain = 0
KMD1 171657Z 29007KT 16/08 A3021 RMK A01 T01600075  RH  057%=      5-min Rain = 0
KMD1 171658Z 31008KT 16/06 A3021 RMK A01 T01640056  RH  049%=      5-min Rain = 0
KMD1 171659Z 32009KT 17/04 A3021 RMK A01 T01680038  RH  042%=      5-min Rain = 0
KMD1 171700Z 33009KT 17/04 A3021 RMK A01 T01690038  RH  042%=      5-min Rain = 0
KMD1 171701Z 31010KT 17/04 A3021 RMK A01 T01700039  RH  042%=      5-min Rain = 0
KMD1 171702Z 32009KT 17/04 A3021 RMK A01 T01720037  RH  041%=      5-min Rain = 0
KMD1 171703Z 31007KT 17/04 A3021 RMK A01 T01730041  RH  042%=      5-min Rain = 0
KMD1 171704Z 32008KT 17/04 A3021 RMK A01 T01740039  RH  041%=      5-min Rain = 0
KMD1 171705Z 31009KT 17/04 A3021 RMK A01 T01740037  RH  040%=      5-min Rain = 0
KMD1 171706Z 31008KT 17/04 A3021 RMK A01 T01740038  RH  040%=      5-min Rain = 0
KMD1 171707Z 30008KT 17/04 A3021 RMK A01 T01740037  RH  040%=      5-min Rain = 0
KMD1 171708Z 29006KT 17/04 A3021 RMK A01 T01740037  RH  040%=      5-min Rain = 0
KMD1 171709Z 30008KT 17/04 A3021 RMK A01 T01740038  RH  040%=      5-min Rain = 0
KMD1 171710Z 32007KT 18/05 A3021 RMK A01 T01750045  RH  042%=      5-min Rain = 0
KMD1 171711Z 34007KT 18/05 A3021 RMK A01 T01770045  RH  042%=      5-min Rain = 0
KMD1 171712Z 34007KT 18/04 A3021 RMK A01 T01780041  RH  040%=      5-min Rain = 0
KMD1 171713Z 32005KT 18/04 A3021 RMK A01 T01780037  RH  039%=      5-min Rain = 0
KMD1 171714Z 33006KT 18/04 A3022 RMK A01 T01780039  RH  040%=      5-min Rain = 0
KMD1 171715Z 32006KT 18/04 A3022 RMK A01 T01780036  RH  039%=      5-min Rain = 0
KMD1 171716Z 34008KT 18/04 A3022 RMK A01 T01770035  RH  039%=      5-min Rain = 0
KMD1 171717Z 32008KT 18/04 A3022 RMK A01 T01770036  RH  039%=      5-min Rain = 0
KMD1 171718Z 35004KT 18/03 A3022 RMK A01 T01770030  RH  037%=      5-min Rain = 0
KMD1 171719Z 34008KT 18/04 A3022 RMK A01 T01760035  RH  039%=      5-min Rain = 0
KMD1 171720Z 34006KT 18/03 A3022 RMK A01 T01770034  RH  039%=      5-min Rain = 0
KMD1 171721Z 35005KT 18/04 A3022 RMK A01 T01770038  RH  039%=      5-min Rain = 0
KMD1 171722Z 36006KT 18/04 A3022 RMK A01 T01780036  RH  039%=      5-min Rain = 0
KMD1 171723Z 35005KT 18/03 A3022 RMK A01 T01780034  RH  038%=      5-min Rain = 0
KMD1 171724Z 36005KT 18/04 A3022 RMK A01 T01780042  RH  041%=      5-min Rain = 0
KMD1 171725Z 34004KT 18/04 A3022 RMK A01 T01790038  RH  039%=      5-min Rain = 0
KMD1 171726Z 31006KT 18/04 A3022 RMK A01 T01790035  RH  039%=      5-min Rain = 0
KMD1 171727Z 33007KT 18/04 A3022 RMK A01 T01790039  RH  039%=      5-min Rain = 0
KMD1 171728Z 34004KT 18/04 A3022 RMK A01 T01790035  RH  038%=      5-min Rain = 0
KMD1 171729Z 31003KT 18/04 A3022 RMK A01 T01800038  RH  039%=      5-min Rain = 0
KMD1 171730Z 32004KT 18/04 A3022 RMK A01 T01810044  RH  040%=      5-min Rain = 0
KMD1 171731Z 34005KT 18/05 A3022 RMK A01 T01820046  RH  040%=      5-min Rain = 0
KMD1 171732Z 34005KT 18/04 A3022 RMK A01 T01830042  RH  039%=      5-min Rain = 0
KMD1 171733Z 32008KT 18/04 A3022 RMK A01 T01840039  RH  038%=      5-min Rain = 0
KMD1 171734Z 31007KT 18/04 A3022 RMK A01 T01840042  RH  039%=      5-min Rain = 0
KMD1 171735Z 31006KT 18/04 A3022 RMK A01 T01830039  RH  038%=      5-min Rain = 0
KMD1 171736Z 30008KT 18/04 A3022 RMK A01 T01830040  RH  039%=      5-min Rain = 0
KMD1 171737Z 32007KT 18/04 A3022 RMK A01 T01830044  RH  040%=      5-min Rain = 0
KMD1 171738Z 33006KT 18/04 A3022 RMK A01 T01840039  RH  038%=      5-min Rain = 0
KMD1 171739Z 32007KT 18/04 A3022 RMK A01 T01830038  RH  038%=      5-min Rain = 0
KMD1 171740Z 32007KT 18/04 A3022 RMK A01 T01830037  RH  038%=      5-min Rain = 0
KMD1 171741Z 32005KT 18/03 A3022 RMK A01 T01820033  RH  037%=      5-min Rain = 0
KMD1 171742Z 32006KT 18/04 A3022 RMK A01 T01810036  RH  038%=      5-min Rain = 0
KMD1 171743Z 33007KT 18/04 A3022 RMK A01 T01820041  RH  039%=      5-min Rain = 0
KMD1 171744Z 31006KT 18/04 A3022 RMK A01 T01820036  RH  038%=      5-min Rain = 0
KMD1 171745Z 31005KT 18/04 A3022 RMK A01 T01830038  RH  038%=      5-min Rain = 0
KMD1 171746Z 32005KT 18/04 A3022 RMK A01 T01830038  RH  038%=      5-min Rain = 0
KMD1 171747Z 35006KT 18/04 A3022 RMK A01 T01840042  RH  039%=      5-min Rain = 0
KMD1 171748Z 34006KT 18/04 A3022 RMK A01 T01840039  RH  038%=      5-min Rain = 0
KMD1 171749Z 32006KT 18/04 A3022 RMK A01 T01830041  RH  039%=      5-min Rain = 0
KMD1 171750Z 32006KT 18/04 A3022 RMK A01 T01830036  RH  038%=      5-min Rain = 0
KMD1 171751Z 30004KT 18/03 A3022 RMK A01 T01820034  RH  037%=      5-min Rain = 0
KMD1 171752Z 29005KT 18/04 A3022 RMK A01 T01810035  RH  038%=      5-min Rain = 0
KMD1 171753Z 33007KT 18/04 A3022 RMK A01 T01810039  RH  039%=      5-min Rain = 0
KMD1 171754Z 34007KT 18/04 A3022 RMK A01 T01820035  RH  038%=      5-min Rain = 0
KMD1 171755Z 35007KT 18/04 A3022 RMK A01 T01830036  RH  038%=      5-min Rain = 0
KMD1 171756Z 33005KT 18/04 A3022 RMK A01 T01820036  RH  038%=      5-min Rain = 0
KMD1 171757Z 33006KT 18/04 A3022 RMK A01 T01830036  RH  038%=      5-min Rain = 0
KMD1 171758Z 32006KT 18/04 A3022 RMK A01 T01830037  RH  038%=      5-min Rain = 0
KMD1 171759Z 34005KT 18/03 A3022 RMK A01 T01830033  RH  037%=      5-min Rain = 0
KMD1 171800Z 33005KT 18/03 A3022 RMK A01 T01830032  RH  037%=      5-min Rain = 0
KMD1 171801Z 35004KT 18/03 A3022 RMK A01 T01830034  RH  037%=      5-min Rain = 0
KMD1 171802Z 36004KT 18/03 A3022 RMK A01 T01830033  RH  037%=      5-min Rain = 0
KMD1 171803Z 35006KT 18/04 A3022 RMK A01 T01830040  RH  039%=      5-min Rain = 0
KMD1 171804Z 34005KT 18/04 A3022 RMK A01 T01840041  RH  039%=      5-min Rain = 0
KMD1 171805Z 36005KT 18/04 A3022 RMK A01 T01840037  RH  038%=      5-min Rain = 0
KMD1 171806Z 36005KT 18/04 A3022 RMK A01 T01840039  RH  038%=      5-min Rain = 0
KMD1 171807Z 35006KT 18/03 A3022 RMK A01 T01830033  RH  037%=      5-min Rain = 0
KMD1 171808Z 35005KT 18/03 A3022 RMK A01 T01820033  RH  037%=      5-min Rain = 0
KMD1 171809Z 00004KT 18/03 A3022 RMK A01 T01820034  RH  037%=      5-min Rain = 0
KMD1 171810Z 00005KT 18/03 A3022 RMK A01 T01810032  RH  037%=      5-min Rain = 0
KMD1 171811Z 01005KT 18/03 A3022 RMK A01 T01810034  RH  038%=      5-min Rain = 0
KMD1 171812Z 01004KT 18/03 A3021 RMK A01 T01810031  RH  037%=      5-min Rain = 0
KMD1 171813Z 36005KT 18/04 A3021 RMK A01 T01810037  RH  038%=      5-min Rain = 0
KMD1 171814Z 36005KT 18/04 A3021 RMK A01 T01820037  RH  038%=      5-min Rain = 0
KMD1 171815Z 35003KT 18/03 A3021 RMK A01 T01830032  RH  037%=      5-min Rain = 0
KMD1 171816Z 33003KT 18/04 A3021 RMK A01 T01820039  RH  038%=      5-min Rain = 0
KMD1 171817Z 31003KT 18/04 A3021 RMK A01 T01840040  RH  038%=      5-min Rain = 0
KMD1 171818Z 32004KT 19/04 A3021 RMK A01 T01860036  RH  037%=      5-min Rain = 0
KMD1 171819Z 34004KT 19/04 A3021 RMK A01 T01870043  RH  038%=      5-min Rain = 0
KMD1 171820Z 32003KT 19/03 A3021 RMK A01 T01880032  RH  035%=      5-min Rain = 0
KMD1 171821Z 36005KT 19/03 A3021 RMK A01 T01870034  RH  036%=      5-min Rain = 0
KMD1 171822Z 01003KT 19/03 A3021 RMK A01 T01850034  RH  036%=      5-min Rain = 0
KMD1 171823Z 04001KT 19/03 A3021 RMK A01 T01850034  RH  037%=      5-min Rain = 0
KMD1 171824Z 05002KT 19/04 A3021 RMK A01 T01850040  RH  038%=      5-min Rain = 0
KMD1 171825Z 01002KT 19/03 A3021 RMK A01 T01860033  RH  036%=      5-min Rain = 0
KMD1 171826Z 35004KT 19/04 A3021 RMK A01 T01870044  RH  039%=      5-min Rain = 0
KMD1 171827Z 31004KT 19/05 A3021 RMK A01 T01900047  RH  039%=      5-min Rain = 0
KMD1 171828Z 30004KT 19/03 A3021 RMK A01 T01910034  RH  035%=      5-min Rain = 0
KMD1 171829Z 32004KT 19/04 A302 RMK A01 T01900038  RH  037%=      5-min Rain = 0
KMD1 171830Z 36003KT 19/04 A302 RMK A01 T01900043  RH  038%=      5-min Rain = 0
KMD1 171831Z 02002KT 19/03 A302 RMK A01 T01900034  RH  036%=      5-min Rain = 0
KMD1 171832Z 03002KT 19/04 A302 RMK A01 T01890037  RH  036%=      5-min Rain = 0
KMD1 171833Z 01003KT 19/06 A302 RMK A01 T01900056  RH  041%=      5-min Rain = 0
KMD1 171834Z 02005KT 19/05 A302 RMK A01 T01930047  RH  038%=      5-min Rain = 0
KMD1 171835Z 01004KT 19/04 A302 RMK A01 T01900040  RH  037%=      5-min Rain = 0
KMD1 171836Z 01005KT 19/05 A302 RMK A01 T01900049  RH  040%=      5-min Rain = 0
KMD1 171837Z 02004KT 19/04 A302 RMK A01 T01890038  RH  037%=      5-min Rain = 0
KMD1 171838Z 03003KT 19/04 A302 RMK A01 T01880035  RH  036%=      5-min Rain = 0
KMD1 171839Z 03004KT 19/04 A302 RMK A01 T01870035  RH  036%=      5-min Rain = 0
KMD1 171840Z 03004KT 19/04 A302 RMK A01 T01860039  RH  038%=      5-min Rain = 0
KMD1 171841Z 03003KT 19/04 A302 RMK A01 T01860041  RH  038%=      5-min Rain = 0
KMD1 171842Z 05002KT 19/04 A302 RMK A01 T01860037  RH  037%=      5-min Rain = 0
KMD1 171843Z 03003KT 19/04 A302 RMK A01 T01870035  RH  037%=      5-min Rain = 0
KMD1 171844Z 05002KT 19/03 A302 RMK A01 T01870032  RH  036%=      5-min Rain = 0
KMD1 171845Z 07001KT 19/03 A302 RMK A01 T01880033  RH  036%=      5-min Rain = 0
KMD1 171846Z 03003KT 19/04 A302 RMK A01 T01900040  RH  037%=      5-min Rain = 0
KMD1 171847Z 02004KT 19/04 A302 RMK A01 T01900039  RH  037%=      5-min Rain = 0
KMD1 171848Z 04004KT 19/04 A302 RMK A01 T01900035  RH  036%=      5-min Rain = 0
KMD1 171849Z 03004KT 19/04 A302 RMK A01 T01890038  RH  037%=      5-min Rain = 0
KMD1 171850Z 04002KT 19/03 A302 RMK A01 T01880033  RH  036%=      5-min Rain = 0
KMD1 171851Z 02003KT 19/04 A302 RMK A01 T01880037  RH  037%=      5-min Rain = 0
KMD1 171852Z 02003KT 19/05 A302 RMK A01 T01890048  RH  039%=      5-min Rain = 0
KMD1 171853Z 03002KT 19/04 A302 RMK A01 T01910042  RH  037%=      5-min Rain = 0
KMD1 171854Z 01003KT 19/05 A302 RMK A01 T01920046  RH  038%=      5-min Rain = 0
KMD1 171855Z 03002KT 19/04 A302 RMK A01 T01930043  RH  037%=      5-min Rain = 0
KMD1 171856Z 03002KT 19/05 A302 RMK A01 T01940047  RH  038%=      5-min Rain = 0
KMD1 171857Z 03002KT 19/04 A3019 RMK A01 T01940039  RH  036%=      5-min Rain = 0
KMD1 171858Z 07001KT 19/04 A3019 RMK A01 T01930041  RH  036%=      5-min Rain = 0
KMD1 171859Z 12000KT 19/04 A3019 RMK A01 T01930035  RH  035%=      5-min Rain = 0
KMD1 171900Z 28002KT 20/03 A3019 RMK A01 T01950032  RH  034%=      5-min Rain = 0
KMD1 171901Z 27004KT 20/04 A3019 RMK A01 T01950038  RH  035%=      5-min Rain = 0
KMD1 171902Z 27003KT 20/04 A3019 RMK A01 T01950038  RH  035%=      5-min Rain = 0
KMD1 171903Z 26003KT 20/04 A3019 RMK A01 T01960041  RH  036%=      5-min Rain = 0
KMD1 171904Z 26003KT 20/03 A3019 RMK A01 T01960032  RH  034%=      5-min Rain = 0
KMD1 171905Z 26002KT 20/03 A3019 RMK A01 T01950032  RH  034%=      5-min Rain = 0
KMD1 171906Z 26002KT 20/03 A3019 RMK A01 T01950032  RH  034%=      5-min Rain = 0
KMD1 171907Z 24001KT 19/03 A3019 RMK A01 T01940027  RH  033%=      5-min Rain = 0
KMD1 171908Z 24001KT 19/03 A3019 RMK A01 T01940028  RH  033%=      5-min Rain = 0
KMD1 171909Z 27002KT 20/03 A3019 RMK A01 T01960030  RH  033%=      5-min Rain = 0
KMD1 171910Z 28003KT 20/03 A3019 RMK A01 T01960031  RH  033%=      5-min Rain = 0
KMD1 171911Z 28002KT 20/03 A3018 RMK A01 T01960031  RH  033%=      5-min Rain = 0
KMD1 171912Z 30001KT 20/04 A3018 RMK A01 T01960038  RH  035%=      5-min Rain = 0
KMD1 171913Z 28001KT 20/04 A3018 RMK A01 T01970035  RH  034%=      5-min Rain = 0
KMD1 171914Z 30000KT 20/04 A3018 RMK A01 T01980038  RH  035%=      5-min Rain = 0
KMD1 171915Z 33001KT 20/04 A3018 RMK A01 T01980044  RH  036%=      5-min Rain = 0
KMD1 171916Z 33002KT 20/04 A3018 RMK A01 T02000042  RH  035%=      5-min Rain = 0
KMD1 171917Z 35002KT 20/03 A3018 RMK A01 T01990034  RH  033%=      5-min Rain = 0
KMD1 171918Z 00000KT 20/03 A3018 RMK A01 T01980031  RH  033%=      5-min Rain = 0
KMD1 171919Z 33000KT 20/03 A3017 RMK A01 T01970033  RH  034%=      5-min Rain = 0
KMD1 171920Z 03001KT 20/04 A3017 RMK A01 T01970038  RH  035%=      5-min Rain = 0
KMD1 171921Z 04001KT 20/04 A3017 RMK A01 T01980036  RH  034%=      5-min Rain = 0
KMD1 171922Z 01002KT 20/05 A3017 RMK A01 T01980046  RH  037%=      5-min Rain = 0
KMD1 171923Z 00003KT 20/04 A3017 RMK A01 T01990040  RH  035%=      5-min Rain = 0
KMD1 171924Z 01003KT 20/04 A3017 RMK A01 T01980039  RH  035%=      5-min Rain = 0
KMD1 171925Z 02003KT 20/05 A3017 RMK A01 T01970048  RH  037%=      5-min Rain = 0
KMD1 171926Z 02003KT 20/05 A3016 RMK A01 T01970048  RH  038%=      5-min Rain = 0
KMD1 171927Z 02003KT 20/04 A3016 RMK A01 T01970040  RH  035%=      5-min Rain = 0
KMD1 171928Z 02003KT 20/04 A3016 RMK A01 T01970041  RH  036%=      5-min Rain = 0
KMD1 171929Z 02002KT 20/04 A3016 RMK A01 T01970043  RH  036%=      5-min Rain = 0
KMD1 171930Z 05002KT 20/05 A3016 RMK A01 T01980048  RH  037%=      5-min Rain = 0
KMD1 171931Z 04002KT 20/04 A3016 RMK A01 T01990040  RH  035%=      5-min Rain = 0
KMD1 171932Z 03003KT 20/04 A3016 RMK A01 T01990041  RH  035%=      5-min Rain = 0
KMD1 171933Z 01003KT 20/04 A3016 RMK A01 T01990037  RH  034%=      5-min Rain = 0
KMD1 171934Z 03004KT 20/04 A3015 RMK A01 T01980043  RH  036%=      5-min Rain = 0
KMD1 171935Z 03002KT 20/04 A3015 RMK A01 T01970040  RH  035%=      5-min Rain = 0
KMD1 171936Z 04001KT 20/04 A3015 RMK A01 T01970039  RH  035%=      5-min Rain = 0
KMD1 171937Z 03001KT 20/04 A3015 RMK A01 T01970040  RH  035%=      5-min Rain = 0
KMD1 171938Z 04003KT 20/04 A3015 RMK A01 T01970038  RH  035%=      5-min Rain = 0
KMD1 171939Z 04003KT 20/03 A3015 RMK A01 T01970032  RH  034%=      5-min Rain = 0
KMD1 171940Z 05003KT 20/04 A3015 RMK A01 T01960044  RH  037%=      5-min Rain = 0
KMD1 171941Z 08002KT 20/03 A3015 RMK A01 T01960034  RH  034%=      5-min Rain = 0
KMD1 171942Z 12002KT 20/04 A3015 RMK A01 T01970036  RH  034%=      5-min Rain = 0
KMD1 171943Z 10003KT 20/04 A3015 RMK A01 T01970038  RH  035%=      5-min Rain = 0
KMD1 171944Z 13002KT 20/03 A3015 RMK A01 T01980034  RH  034%=      5-min Rain = 0
KMD1 171945Z 13002KT 20/04 A3014 RMK A01 T01980035  RH  034%=      5-min Rain = 0
KMD1 171946Z 08002KT 20/04 A3014 RMK A01 T01990038  RH  035%=      5-min Rain = 0
KMD1 171947Z 08002KT 20/03 A3014 RMK A01 T01990033  RH  033%=      5-min Rain = 0
KMD1 171948Z 08002KT 20/03 A3014 RMK A01 T01990030  RH  033%=      5-min Rain = 0
KMD1 171949Z 09001KT 20/03 A3014 RMK A01 T01980032  RH  033%=      5-min Rain = 0
KMD1 171950Z 11002KT 20/03 A3014 RMK A01 T01980034  RH  034%=      5-min Rain = 0
KMD1 171951Z 11003KT 20/03 A3014 RMK A01 T01980033  RH  033%=      5-min Rain = 0
KMD1 171952Z 09003KT 20/04 A3014 RMK A01 T01980036  RH  034%=      5-min Rain = 0
KMD1 171953Z 11002KT 20/04 A3014 RMK A01 T01990036  RH  034%=      5-min Rain = 0
KMD1 171954Z 08004KT 20/04 A3014 RMK A01 T01990037  RH  034%=      5-min Rain = 0
KMD1 171955Z 08004KT 20/04 A3014 RMK A01 T02000041  RH  035%=      5-min Rain = 0
KMD1 171956Z 12004KT 20/04 A3014 RMK A01 T02000040  RH  035%=      5-min Rain = 0
KMD1 171957Z 10003KT 20/04 A3014 RMK A01 T02000036  RH  034%=      5-min Rain = 0
KMD1 171958Z 08003KT 20/04 A3014 RMK A01 T02000038  RH  034%=      5-min Rain = 0
KMD1 171959Z 06004KT 20/04 A3014 RMK A01 T02000043  RH  036%=      5-min Rain = 0
KMD1 172000Z 05004KT 20/05 A3014 RMK A01 T02000046  RH  036%=      5-min Rain = 0
KMD1 172001Z 07003KT 20/04 A3014 RMK A01 T02000040  RH  035%=      5-min Rain = 0
KMD1 172002Z 07002KT 20/04 A3014 RMK A01 T01990039  RH  035%=      5-min Rain = 0
KMD1 172003Z 05002KT 20/04 A3013 RMK A01 T01990039  RH  035%=      5-min Rain = 0
KMD1 172004Z 06002KT 20/04 A3013 RMK A01 T01990039  RH  035%=      5-min Rain = 0
KMD1 172005Z 06003KT 20/04 A3013 RMK A01 T01990042  RH  035%=      5-min Rain = 0
KMD1 172006Z 07003KT 20/04 A3013 RMK A01 T02000042  RH  035%=      5-min Rain = 0
KMD1 172007Z 06002KT 20/04 A3013 RMK A01 T02000038  RH  034%=      5-min Rain = 0
KMD1 172008Z 05004KT 20/04 A3013 RMK A01 T02000039  RH  035%=      5-min Rain = 0
KMD1 172009Z 04005KT 20/05 A3013 RMK A01 T02000045  RH  036%=      5-min Rain = 0
KMD1 172010Z 03004KT 20/04 A3013 RMK A01 T02000040  RH  035%=      5-min Rain = 0
KMD1 172011Z 05003KT 20/04 A3013 RMK A01 T02000040  RH  035%=      5-min Rain = 0
KMD1 172012Z 05002KT 20/04 A3013 RMK A01 T02000040  RH  035%=      5-min Rain = 0
KMD1 172013Z 04002KT 20/04 A3013 RMK A01 T02000036  RH  034%=      5-min Rain = 0
KMD1 172014Z 04001KT 20/05 A3013 RMK A01 T02010047  RH  036%=      5-min Rain = 0
KMD1 172015Z 20001KT 20/04 A3013 RMK A01 T02010036  RH  034%=      5-min Rain = 0
KMD1 172016Z 21004KT 20/04 A3013 RMK A01 T02030036  RH  033%=      5-min Rain = 0
KMD1 172017Z 20003KT 20/04 A3013 RMK A01 T02040035  RH  033%=      5-min Rain = 0
KMD1 172018Z 22002KT 20/04 A3013 RMK A01 T02040035  RH  033%=      5-min Rain = 0
KMD1 172019Z 26001KT 20/04 A3013 RMK A01 T02040035  RH  033%=      5-min Rain = 0
KMD1 172020Z 30000KT 21/04 A3014 RMK A01 T02050037  RH  033%=      5-min Rain = 0
KMD1 172021Z 00000KT 21/04 A3014 RMK A01 T02060041  RH  034%=      5-min Rain = 0
KMD1 172022Z 00000KT 21/04 A3014 RMK A01 T02070039  RH  033%=      5-min Rain = 0
KMD1 172023Z 00000KT 21/04 A3014 RMK A01 T02080038  RH  033%=      5-min Rain = 0
KMD1 172024Z 17001KT 21/03 A3014 RMK A01 T02080034  RH  032%=      5-min Rain = 0
KMD1 172025Z 16003KT 21/04 A3014 RMK A01 T02090038  RH  032%=      5-min Rain = 0
KMD1 172026Z 16001KT 21/04 A3014 RMK A01 T02100038  RH  032%=      5-min Rain = 0
KMD1 172027Z 21002KT 21/04 A3014 RMK A01 T02110041  RH  033%=      5-min Rain = 0
KMD1 172028Z 21005KT 21/04 A3014 RMK A01 T02120041  RH  033%=      5-min Rain = 0
KMD1 172029Z 22005KT 21/04 A3014 RMK A01 T02120036  RH  031%=      5-min Rain = 0
KMD1 172030Z 26003KT 21/03 A3014 RMK A01 T02110033  RH  031%=      5-min Rain = 0
KMD1 172031Z 25003KT 21/03 A3014 RMK A01 T02090034  RH  032%=      5-min Rain = 0
KMD1 172032Z 27002KT 21/03 A3014 RMK A01 T02080034  RH  032%=      5-min Rain = 0
KMD1 172033Z 22002KT 21/03 A3014 RMK A01 T02070032  RH  031%=      5-min Rain = 0
KMD1 172034Z 21002KT 21/03 A3014 RMK A01 T02070033  RH  032%=      5-min Rain = 0
KMD1 172035Z 19002KT 21/04 A3014 RMK A01 T02070038  RH  033%=      5-min Rain = 0
KMD1 172036Z 20004KT 21/04 A3014 RMK A01 T02090037  RH  032%=      5-min Rain = 0
KMD1 172037Z 18004KT 21/04 A3014 RMK A01 T02090044  RH  034%=      5-min Rain = 0
KMD1 172038Z 18005KT 21/05 A3014 RMK A01 T02100045  RH  034%=      5-min Rain = 0
KMD1 172039Z 19005KT 21/04 A3014 RMK A01 T02100042  RH  033%=      5-min Rain = 0
KMD1 172040Z 20005KT 21/04 A3014 RMK A01 T02080035  RH  032%=      5-min Rain = 0
KMD1 172041Z 21003KT 21/04 A3014 RMK A01 T02050035  RH  033%=      5-min Rain = 0
KMD1 172042Z 19003KT 20/04 A3014 RMK A01 T02040039  RH  034%=      5-min Rain = 0
KMD1 172043Z 20003KT 20/04 A3014 RMK A01 T02030036  RH  033%=      5-min Rain = 0
KMD1 172044Z 20004KT 20/03 A3013 RMK A01 T02030032  RH  032%=      5-min Rain = 0
KMD1 172045Z 20003KT 20/04 A3013 RMK A01 T02030036  RH  033%=      5-min Rain = 0
KMD1 172046Z 19003KT 20/04 A3013 RMK A01 T02030035  RH  033%=      5-min Rain = 0
KMD1 172047Z 19004KT 20/04 A3013 RMK A01 T02030038  RH  034%=      5-min Rain = 0
KMD1 172048Z 18004KT 20/04 A3013 RMK A01 T02030036  RH  033%=      5-min Rain = 0
KMD1 172049Z 18004KT 20/04 A3013 RMK A01 T02030039  RH  034%=      5-min Rain = 0
KMD1 172050Z 20002KT 20/04 A3013 RMK A01 T02040037  RH  033%=      5-min Rain = 0
KMD1 172051Z 19001KT 21/03 A3013 RMK A01 T02060034  RH  032%=      5-min Rain = 0
KMD1 172052Z 20002KT 21/04 A3014 RMK A01 T02080036  RH  032%=      5-min Rain = 0
KMD1 172053Z 20002KT 21/04 A3013 RMK A01 T02100040  RH  033%=      5-min Rain = 0
KMD1 172054Z 20003KT 21/04 A3013 RMK A01 T02110038  RH  032%=      5-min Rain = 0
KMD1 172055Z 20002KT 21/04 A3013 RMK A01 T02110035  RH  031%=      5-min Rain = 0
KMD1 172056Z 14000KT 21/03 A3013 RMK A01 T02100033  RH  031%=      5-min Rain = 0
KMD1 172057Z 14000KT 21/04 A3013 RMK A01 T02090037  RH  032%=      5-min Rain = 0
KMD1 172058Z 21001KT 21/05 A3013 RMK A01 T02100048  RH  035%=      5-min Rain = 0
KMD1 172059Z 25003KT 21/04 A3013 RMK A01 T02110038  RH  032%=      5-min Rain = 0
KMD1 172100Z 26001KT 21/03 A3013 RMK A01 T02120031  RH  030%=      5-min Rain = 0
KMD1 172101Z 29003KT 21/04 A3013 RMK A01 T02120036  RH  031%=      5-min Rain = 0
KMD1 172102Z 30005KT 21/04 A3013 RMK A01 T02120039  RH  032%=      5-min Rain = 0
KMD1 172103Z 29005KT 21/03 A3013 RMK A01 T02120034  RH  031%=      5-min Rain = 0
KMD1 172104Z 30004KT 21/04 A3013 RMK A01 T02120038  RH  032%=      5-min Rain = 0
KMD1 172105Z 30003KT 21/03 A3013 RMK A01 T02120034  RH  031%=      5-min Rain = 0
KMD1 172106Z 30003KT 21/03 A3013 RMK A01 T02100033  RH  031%=      5-min Rain = 0
KMD1 172107Z 31003KT 21/03 A3013 RMK A01 T02090031  RH  031%=      5-min Rain = 0
KMD1 172108Z 31003KT 21/03 A3013 RMK A01 T02070032  RH  032%=      5-min Rain = 0
KMD1 172109Z 28005KT 21/04 A3013 RMK A01 T02060037  RH  033%=      5-min Rain = 0
KMD1 172110Z 27003KT 21/03 A3013 RMK A01 T02050030  RH  031%=      5-min Rain = 0
KMD1 172111Z 28004KT 20/04 A3013 RMK A01 T02040039  RH  034%=      5-min Rain = 0
KMD1 172112Z 29004KT 20/04 A3013 RMK A01 T02030037  RH  033%=      5-min Rain = 0
KMD1 172113Z 31003KT 20/03 A3013 RMK A01 T02030032  RH  032%=      5-min Rain = 0
KMD1 172114Z 31002KT 20/04 A3013 RMK A01 T02030038  RH  034%=      5-min Rain = 0
KMD1 172115Z 32001KT 20/04 A3013 RMK A01 T02040037  RH  033%=      5-min Rain = 0
KMD1 172116Z 30001KT 21/04 A3013 RMK A01 T02050038  RH  033%=      5-min Rain = 0
KMD1 172117Z 30001KT 21/04 A3013 RMK A01 T02070040  RH  033%=      5-min Rain = 0
KMD1 172118Z 26001KT 21/04 A3013 RMK A01 T02090040  RH  033%=      5-min Rain = 0
KMD1 172119Z 24002KT 21/05 A3013 RMK A01 T02110047  RH  034%=      5-min Rain = 0
KMD1 172120Z 27004KT 21/04 A3013 RMK A01 T02120041  RH  032%=      5-min Rain = 0
KMD1 172121Z 25003KT 21/04 A3013 RMK A01 T02130040  RH  032%=      5-min Rain = 0
KMD1 172122Z 26004KT 21/04 A3013 RMK A01 T02130041  RH  032%=      5-min Rain = 0
KMD1 172123Z 26004KT 21/04 A3013 RMK A01 T02130041  RH  032%=      5-min Rain = 0
KMD1 172124Z 25003KT 21/03 A3013 RMK A01 T02130034  RH  031%=      5-min Rain = 0
KMD1 172125Z 27004KT 21/04 A3013 RMK A01 T02120039  RH  032%=      5-min Rain = 0
KMD1 172126Z 27004KT 21/04 A3013 RMK A01 T02110037  RH  032%=      5-min Rain = 0
KMD1 172127Z 27004KT 21/04 A3013 RMK A01 T02100036  RH  032%=      5-min Rain = 0
KMD1 172128Z 24004KT 21/03 A3013 RMK A01 T02090034  RH  032%=      5-min Rain = 0
KMD1 172129Z 26003KT 21/04 A3013 RMK A01 T02080039  RH  033%=      5-min Rain = 0
KMD1 172130Z 29005KT 21/04 A3013 RMK A01 T02080043  RH  034%=      5-min Rain = 0
KMD1 172131Z 28004KT 21/05 A3013 RMK A01 T02100047  RH  035%=      5-min Rain = 0
KMD1 172132Z 27005KT 21/04 A3013 RMK A01 T02100038  RH  032%=      5-min Rain = 0
KMD1 172133Z 28004KT 21/04 A3013 RMK A01 T02100037  RH  032%=      5-min Rain = 0
KMD1 172134Z 27005KT 21/04 A3013 RMK A01 T02100039  RH  032%=      5-min Rain = 0
KMD1 172135Z 25004KT 21/04 A3013 RMK A01 T02110035  RH  031%=      5-min Rain = 0
KMD1 172136Z 26003KT 21/04 A3012 RMK A01 T02110036  RH  032%=      5-min Rain = 0
KMD1 172137Z 25003KT 21/04 A3012 RMK A01 T02110035  RH  032%=      5-min Rain = 0
KMD1 172138Z 25002KT 21/04 A3012 RMK A01 T02110036  RH  032%=      5-min Rain = 0
KMD1 172139Z 29003KT 21/04 A3012 RMK A01 T02110037  RH  032%=      5-min Rain = 0
KMD1 172140Z 31004KT 21/04 A3013 RMK A01 T02120038  RH  032%=      5-min Rain = 0
KMD1 172141Z 31005KT 21/04 A3013 RMK A01 T02120038  RH  032%=      5-min Rain = 0
KMD1 172142Z 30004KT 21/04 A3013 RMK A01 T02110036  RH  031%=      5-min Rain = 0
KMD1 172143Z 29004KT 21/04 A3013 RMK A01 T02110039  RH  032%=      5-min Rain = 0
KMD1 172144Z 28004KT 21/04 A3013 RMK A01 T02110040  RH  033%=      5-min Rain = 0
KMD1 172145Z 26003KT 21/04 A3013 RMK A01 T02120039  RH  032%=      5-min Rain = 0
KMD1 172146Z 26003KT 21/04 A3013 RMK A01 T02120036  RH  032%=      5-min Rain = 0
KMD1 172147Z 28003KT 21/04 A3013 RMK A01 T02120037  RH  032%=      5-min Rain = 0
KMD1 172148Z 30003KT 21/04 A3013 RMK A01 T02120037  RH  032%=      5-min Rain = 0
KMD1 172149Z 33002KT 21/04 A3013 RMK A01 T02120041  RH  032%=      5-min Rain = 0
KMD1 172150Z 34003KT 21/04 A3012 RMK A01 T02130043  RH  033%=      5-min Rain = 0
KMD1 172151Z 31001KT 21/04 A3012 RMK A01 T02130035  RH  031%=      5-min Rain = 0
KMD1 172152Z 32001KT 21/04 A3013 RMK A01 T02120038  RH  032%=      5-min Rain = 0
KMD1 172153Z 31001KT 21/04 A3012 RMK A01 T02130036  RH  031%=      5-min Rain = 0
KMD1 172154Z 28001KT 21/04 A3012 RMK A01 T02130039  RH  032%=      5-min Rain = 0
KMD1 172155Z 32002KT 22/04 A3012 RMK A01 T02150044  RH  033%=      5-min Rain = 0
KMD1 172156Z 25004KT 22/04 A3012 RMK A01 T02160044  RH  032%=      5-min Rain = 0
KMD1 172157Z 25005KT 22/04 A3012 RMK A01 T02170041  RH  032%=      5-min Rain = 0
KMD1 172158Z 22004KT 22/04 A3013 RMK A01 T02170037  RH  031%=      5-min Rain = 0
KMD1 172159Z 21003KT 22/04 A3013 RMK A01 T02170039  RH  031%=      5-min Rain = 0
KMD1 172200Z 26003KT 22/04 A3013 RMK A01 T02170038  RH  031%=      5-min Rain = 0
KMD1 172201Z 28002KT 22/04 A3013 RMK A01 T02170037  RH  031%=      5-min Rain = 0
KMD1 172202Z 28001KT 22/04 A3013 RMK A01 T02170040  RH  031%=      5-min Rain = 0
KMD1 172203Z 24002KT 22/03 A3013 RMK A01 T02170034  RH  030%=      5-min Rain = 0
KMD1 172204Z 22002KT 22/03 A3013 RMK A01 T02180034  RH  030%=      5-min Rain = 0
KMD1 172205Z 22002KT 22/04 A3013 RMK A01 T02190039  RH  031%=      5-min Rain = 0
KMD1 172206Z 23003KT 22/04 A3013 RMK A01 T02190038  RH  030%=      5-min Rain = 0
KMD1 172207Z 26002KT 22/05 A3013 RMK A01 T02200047  RH  032%=      5-min Rain = 0
KMD1 172208Z 25003KT 22/05 A3013 RMK A01 T02200050  RH  033%=      5-min Rain = 0
KMD1 172209Z 29003KT 22/04 A3013 RMK A01 T02210044  RH  032%=      5-min Rain = 0
KMD1 172210Z 27004KT 22/05 A3013 RMK A01 T02210045  RH  032%=      5-min Rain = 0
KMD1 172211Z 25003KT 22/04 A3013 RMK A01 T02200044  RH  032%=      5-min Rain = 0
KMD1 172212Z 27004KT 22/05 A3013 RMK A01 T02200048  RH  033%=      5-min Rain = 0
KMD1 172213Z 27005KT 22/05 A3013 RMK A01 T02200045  RH  032%=      5-min Rain = 0
KMD1 172214Z 24004KT 22/04 A3013 RMK A01 T02190041  RH  031%=      5-min Rain = 0
KMD1 172215Z 22002KT 22/04 A3012 RMK A01 T02170037  RH  031%=      5-min Rain = 0
KMD1 172216Z 21002KT 22/04 A3012 RMK A01 T02170040  RH  031%=      5-min Rain = 0
KMD1 172217Z 21001KT 22/04 A3012 RMK A01 T02180038  RH  031%=      5-min Rain = 0
KMD1 172218Z 00000KT 22/04 A3012 RMK A01 T02190039  RH  031%=      5-min Rain = 0
KMD1 172219Z 13001KT 22/04 A3012 RMK A01 T02210041  RH  031%=      5-min Rain = 0
KMD1 172220Z 15001KT 22/04 A3012 RMK A01 T02220042  RH  031%=      5-min Rain = 0
KMD1 172221Z 20000KT 22/05 A3012 RMK A01 T02220047  RH  032%=      5-min Rain = 0
KMD1 172222Z 27000KT 22/05 A3012 RMK A01 T02230049  RH  032%=      5-min Rain = 0
KMD1 172223Z 30002KT 22/05 A3012 RMK A01 T02240045  RH  031%=      5-min Rain = 0
KMD1 172224Z 31003KT 22/05 A3012 RMK A01 T02240051  RH  032%=      5-min Rain = 0
KMD1 172225Z 26004KT 22/05 A3012 RMK A01 T02230052  RH  033%=      5-min Rain = 0
KMD1 172226Z 26004KT 22/04 A3012 RMK A01 T02220044  RH  031%=      5-min Rain = 0
KMD1 172227Z 28003KT 22/04 A3012 RMK A01 T02200042  RH  031%=      5-min Rain = 0
KMD1 172228Z 28002KT 22/04 A3012 RMK A01 T02180040  RH  031%=      5-min Rain = 0
KMD1 172229Z 22001KT 22/04 A3012 RMK A01 T02180042  RH  032%=      5-min Rain = 0
KMD1 172230Z 22001KT 22/04 A3012 RMK A01 T02170040  RH  031%=      5-min Rain = 0
KMD1 172231Z 21000KT 22/04 A3012 RMK A01 T02180040  RH  031%=      5-min Rain = 0
KMD1 172232Z 23000KT 22/04 A3012 RMK A01 T02190040  RH  031%=      5-min Rain = 0
KMD1 172233Z 28000KT 22/05 A3012 RMK A01 T02210046  RH  032%=      5-min Rain = 0
KMD1 172234Z 30002KT 22/05 A3012 RMK A01 T02220045  RH  031%=      5-min Rain = 0
KMD1 172235Z 29003KT 22/05 A3012 RMK A01 T02220046  RH  032%=      5-min Rain = 0
KMD1 172236Z 29003KT 22/05 A3012 RMK A01 T02220047  RH  032%=      5-min Rain = 0
KMD1 172237Z 28003KT 22/04 A3012 RMK A01 T02200043  RH  031%=      5-min Rain = 0
KMD1 172238Z 28003KT 22/04 A3012 RMK A01 T02190041  RH  031%=      5-min Rain = 0
KMD1 172239Z 28002KT 22/05 A3012 RMK A01 T02180047  RH  033%=      5-min Rain = 0
KMD1 172240Z 24002KT 22/04 A3012 RMK A01 T02180044  RH  032%=      5-min Rain = 0
KMD1 172241Z 23002KT 22/04 A3012 RMK A01 T02170043  RH  032%=      5-min Rain = 0
KMD1 172242Z 21002KT 22/04 A3012 RMK A01 T02180043  RH  032%=      5-min Rain = 0
KMD1 172243Z 20001KT 22/05 A3012 RMK A01 T02180045  RH  032%=      5-min Rain = 0
KMD1 172244Z 21000KT 22/04 A3012 RMK A01 T02190044  RH  032%=      5-min Rain = 0
KMD1 172245Z 19000KT 22/04 A3012 RMK A01 T02200043  RH  031%=      5-min Rain = 0
KMD1 172246Z 19001KT 22/05 A3011 RMK A01 T02200046  RH  032%=      5-min Rain = 0
KMD1 172247Z 28000KT 22/05 A3011 RMK A01 T02220051  RH  033%=      5-min Rain = 0
KMD1 172248Z 26002KT 22/05 A3011 RMK A01 T02220045  RH  031%=      5-min Rain = 0
KMD1 172249Z 24001KT 22/05 A3011 RMK A01 T02220046  RH  032%=      5-min Rain = 0
KMD1 172250Z 25002KT 22/04 A3011 RMK A01 T02210043  RH  031%=      5-min Rain = 0
KMD1 172251Z 28000KT 22/04 A3011 RMK A01 T02210043  RH  031%=      5-min Rain = 0
KMD1 172252Z 00000KT 22/04 A3011 RMK A01 T02200044  RH  032%=      5-min Rain = 0
KMD1 172253Z 08000KT 22/04 A3011 RMK A01 T02200042  RH  031%=      5-min Rain = 0
KMD1 172254Z 09000KT 22/04 A3011 RMK A01 T02200041  RH  031%=      5-min Rain = 0
KMD1 172255Z 07000KT 22/04 A3011 RMK A01 T02200043  RH  031%=      5-min Rain = 0
KMD1 172256Z 13000KT 22/05 A3011 RMK A01 T02200045  RH  032%=      5-min Rain = 0
KMD1 172257Z 00000KT 22/05 A3011 RMK A01 T02190048  RH  033%=      5-min Rain = 0
KMD1 172258Z 00000KT 22/05 A3011 RMK A01 T02200047  RH  032%=      5-min Rain = 0
KMD1 172259Z 00000KT 22/05 A3011 RMK A01 T02210046  RH  032%=      5-min Rain = 0
KMD1 172300Z 24001KT 22/05 A3011 RMK A01 T02220050  RH  033%=      5-min Rain = 0
KMD1 172301Z 25003KT 22/05 A3011 RMK A01 T02220048  RH  032%=      5-min Rain = 0
KMD1 172302Z 25002KT 22/05 A3011 RMK A01 T02220053  RH  033%=      5-min Rain = 0
KMD1 172303Z 24003KT 22/05 A3011 RMK A01 T02210051  RH  033%=      5-min Rain = 0
KMD1 172304Z 24003KT 22/05 A3011 RMK A01 T02200045  RH  032%=      5-min Rain = 0
KMD1 172305Z 24003KT 22/04 A3011 RMK A01 T02180044  RH  032%=      5-min Rain = 0
KMD1 172306Z 24003KT 22/04 A3011 RMK A01 T02170043  RH  032%=      5-min Rain = 0
KMD1 172307Z 24002KT 22/04 A3011 RMK A01 T02150043  RH  032%=      5-min Rain = 0
KMD1 172308Z 24002KT 22/05 A3011 RMK A01 T02150045  RH  033%=      5-min Rain = 0
KMD1 172309Z 23002KT 21/05 A3012 RMK A01 T02140046  RH  033%=      5-min Rain = 0
KMD1 172310Z 24002KT 21/05 A3012 RMK A01 T02140045  RH  033%=      5-min Rain = 0
KMD1 172311Z 24002KT 22/05 A3012 RMK A01 T02150046  RH  033%=      5-min Rain = 0
KMD1 172312Z 24002KT 22/05 A3012 RMK A01 T02150049  RH  034%=      5-min Rain = 0
KMD1 172313Z 26001KT 22/05 A3012 RMK A01 T02150046  RH  033%=      5-min Rain = 0
KMD1 172314Z 28002KT 22/05 A3012 RMK A01 T02150050  RH  034%=      5-min Rain = 0
KMD1 172315Z 30003KT 22/05 A3012 RMK A01 T02150046  RH  033%=      5-min Rain = 0
KMD1 172316Z 29002KT 21/04 A3012 RMK A01 T02140042  RH  032%=      5-min Rain = 0
KMD1 172317Z 28001KT 22/04 A3012 RMK A01 T02150041  RH  032%=      5-min Rain = 0
KMD1 172318Z 29003KT 21/04 A3012 RMK A01 T02140043  RH  033%=      5-min Rain = 0
KMD1 172319Z 29002KT 21/05 A3012 RMK A01 T02140047  RH  034%=      5-min Rain = 0
KMD1 172320Z 26002KT 21/04 A3012 RMK A01 T02140042  RH  032%=      5-min Rain = 0
KMD1 172321Z 27001KT 21/04 A3012 RMK A01 T02140042  RH  032%=      5-min Rain = 0
KMD1 172322Z 26002KT 21/05 A3012 RMK A01 T02140046  RH  033%=      5-min Rain = 0
KMD1 172323Z 26001KT 21/05 A3012 RMK A01 T02140046  RH  033%=      5-min Rain = 0
KMD1 172324Z 27001KT 21/05 A3012 RMK A01 T02140046  RH  033%=      5-min Rain = 0
KMD1 172325Z 29001KT 21/05 A3012 RMK A01 T02140048  RH  034%=      5-min Rain = 0
KMD1 172326Z 28002KT 21/05 A3012 RMK A01 T02140048  RH  034%=      5-min Rain = 0
KMD1 172327Z 29001KT 21/05 A3012 RMK A01 T02130049  RH  034%=      5-min Rain = 0
KMD1 172328Z 30001KT 21/05 A3012 RMK A01 T02130047  RH  034%=      5-min Rain = 0
KMD1 172329Z 29001KT 21/05 A3012 RMK A01 T02120054  RH  036%=      5-min Rain = 0
KMD1 172330Z 28001KT 21/06 A3012 RMK A01 T02110055  RH  036%=      5-min Rain = 0
KMD1 172331Z 28001KT 21/05 A3012 RMK A01 T02100052  RH  036%=      5-min Rain = 0
KMD1 172332Z 28001KT 21/05 A3012 RMK A01 T02090049  RH  035%=      5-min Rain = 0
KMD1 172333Z 28001KT 21/05 A3012 RMK A01 T02080051  RH  036%=      5-min Rain = 0
KMD1 172334Z 29002KT 21/05 A3012 RMK A01 T02070051  RH  036%=      5-min Rain = 0
KMD1 172335Z 30001KT 21/05 A3012 RMK A01 T02070051  RH  036%=      5-min Rain = 0
KMD1 172336Z 30002KT 21/05 A3012 RMK A01 T02060048  RH  035%=      5-min Rain = 0
KMD1 172337Z 30001KT 21/05 A3012 RMK A01 T02050050  RH  036%=      5-min Rain = 0
KMD1 172338Z 31001KT 21/05 A3011 RMK A01 T02050054  RH  037%=      5-min Rain = 0
KMD1 172339Z 31001KT 20/06 A3011 RMK A01 T02040056  RH  038%=      5-min Rain = 0
KMD1 172340Z 30001KT 20/05 A3011 RMK A01 T02020054  RH  038%=      5-min Rain = 0
KMD1 172341Z 30001KT 20/06 A3011 RMK A01 T02010055  RH  038%=      5-min Rain = 0
KMD1 172342Z 30001KT 20/06 A3011 RMK A01 T02000057  RH  039%=      5-min Rain = 0
KMD1 172343Z 30001KT 20/06 A3011 RMK A01 T01990055  RH  039%=      5-min Rain = 0
KMD1 172344Z 29002KT 20/05 A3011 RMK A01 T01970051  RH  038%=      5-min Rain = 0
KMD1 172345Z 30002KT 20/05 A3011 RMK A01 T01970053  RH  039%=      5-min Rain = 0
KMD1 172346Z 30002KT 20/06 A3011 RMK A01 T01950056  RH  040%=      5-min Rain = 0
KMD1 172347Z 30001KT 19/06 A3011 RMK A01 T01940058  RH  041%=      5-min Rain = 0
KMD1 172348Z 30001KT 19/06 A3011 RMK A01 T01920060  RH  042%=      5-min Rain = 0
KMD1 172349Z 30001KT 19/06 A3011 RMK A01 T01890059  RH  042%=      5-min Rain = 0
KMD1 172350Z 30001KT 19/06 A3012 RMK A01 T01870057  RH  042%=      5-min Rain = 0
KMD1 172351Z 31001KT 19/06 A3012 RMK A01 T01850056  RH  043%=      5-min Rain = 0
KMD1 172352Z 31001KT 18/05 A3012 RMK A01 T01840050  RH  041%=      5-min Rain = 0
KMD1 172353Z 31001KT 18/05 A3012 RMK A01 T01840051  RH  042%=      5-min Rain = 0
KMD1 172354Z 31001KT 18/05 A3012 RMK A01 T01830047  RH  041%=      5-min Rain = 0
KMD1 172355Z 31001KT 18/04 A3012 RMK A01 T01820043  RH  040%=      5-min Rain = 0
KMD1 172356Z 30001KT 18/04 A3012 RMK A01 T01830043  RH  040%=      5-min Rain = 0
KMD1 172357Z 30000KT 18/04 A3012 RMK A01 T01840043  RH  039%=      5-min Rain = 0
KMD1 172358Z 29000KT 18/04 A3012 RMK A01 T01840043  RH  039%=      5-min Rain = 0
KMD1 172359Z 00000KT 18/04 A3012 RMK A01 T01840042  RH  039%=      5-min Rain = 0
KMD1 180000Z 28000KT 19/04 A3012 RMK A01 T01850042  RH  039%=      5-min Rain = 0
KMD1 180001Z 27001KT 19/04 A3012 RMK A01 T01850043  RH  039%=      5-min Rain = 0
KMD1 180002Z 27001KT 18/05 A3012 RMK A01 T01840045  RH  040%=      5-min Rain = 0
KMD1 180003Z 26001KT 18/04 A3012 RMK A01 T01830044  RH  040%=      5-min Rain = 0
KMD1 180004Z 26001KT 18/05 A3012 RMK A01 T01830050  RH  042%=      5-min Rain = 0
KMD1 180005Z 26001KT 18/06 A3012 RMK A01 T01800058  RH  045%=      5-min Rain = 0
KMD1 180006Z 26001KT 18/06 A3012 RMK A01 T01770058  RH  045%=      5-min Rain = 0
KMD1 180007Z 26001KT 18/05 A3012 RMK A01 T01750049  RH  043%=      5-min Rain = 0
KMD1 180008Z 26001KT 17/05 A3012 RMK A01 T01740046  RH  043%=      5-min Rain = 0
KMD1 180009Z 26000KT 17/04 A3012 RMK A01 T01740044  RH  042%=      5-min Rain = 0
KMD1 180010Z 00000KT 17/04 A3011 RMK A01 T01740042  RH  042%=      5-min Rain = 0
KMD1 180011Z 00000KT 18/04 A3011 RMK A01 T01750042  RH  041%=      5-min Rain = 0
KMD1 180012Z 00000KT 18/04 A3011 RMK A01 T01750042  RH  041%=      5-min Rain = 0
KMD1 180013Z 00000KT 18/04 A3011 RMK A01 T01750041  RH  041%=      5-min Rain = 0
KMD1 180014Z 00000KT 18/04 A3011 RMK A01 T01750040  RH  041%=      5-min Rain = 0
KMD1 180015Z 00000KT 18/05 A3011 RMK A01 T01750050  RH  044%=      5-min Rain = 0
KMD1 180016Z 05001KT 17/06 A3011 RMK A01 T01690056  RH  048%=      5-min Rain = 0
KMD1 180017Z 05000KT 16/06 A3011 RMK A01 T01630056  RH  049%=      5-min Rain = 0
KMD1 180018Z 00000KT 16/06 A3011 RMK A01 T01590057  RH  051%=      5-min Rain = 0
KMD1 180019Z 00000KT 16/06 A3011 RMK A01 T01550059  RH  053%=      5-min Rain = 0
KMD1 180020Z 00000KT 15/06 A3011 RMK A01 T01530061  RH  054%=      5-min Rain = 0
KMD1 180021Z 07000KT 15/06 A3011 RMK A01 T01510064  RH  056%=      5-min Rain = 0
KMD1 180022Z 07001KT 15/06 A3011 RMK A01 T01500061  RH  055%=      5-min Rain = 0
KMD1 180023Z 07001KT 15/06 A3011 RMK A01 T01500060  RH  055%=      5-min Rain = 0
KMD1 180024Z 07001KT 15/06 A3011 RMK A01 T01500056  RH  053%=      5-min Rain = 0
KMD1 180025Z 08001KT 15/05 A3011 RMK A01 T01500053  RH  052%=      5-min Rain = 0
KMD1 180026Z 08001KT 15/05 A3011 RMK A01 T01510053  RH  052%=      5-min Rain = 0
KMD1 180027Z 08001KT 15/05 A3011 RMK A01 T01510051  RH  051%=      5-min Rain = 0
KMD1 180028Z 08001KT 15/05 A3011 RMK A01 T01510051  RH  051%=      5-min Rain = 0
KMD1 180029Z 06001KT 15/05 A3011 RMK A01 T01510051  RH  051%=      5-min Rain = 0
KMD1 180030Z 05001KT 15/05 A3011 RMK A01 T01500052  RH  052%=      5-min Rain = 0
KMD1 180031Z 04001KT 15/05 A3011 RMK A01 T01500052  RH  052%=      5-min Rain = 0
KMD1 180032Z 04001KT 15/05 A3011 RMK A01 T01490050  RH  052%=      5-min Rain = 0
KMD1 180033Z 04001KT 15/05 A3011 RMK A01 T01490049  RH  051%=      5-min Rain = 0
KMD1 180034Z 04001KT 15/05 A3011 RMK A01 T01470050  RH  052%=      5-min Rain = 0
KMD1 180035Z 04002KT 15/05 A3011 RMK A01 T01450051  RH  053%=      5-min Rain = 0
KMD1 180036Z 05002KT 14/05 A3011 RMK A01 T01420052  RH  054%=      5-min Rain = 0
KMD1 180037Z 06001KT 14/05 A3011 RMK A01 T01400051  RH  055%=      5-min Rain = 0
KMD1 180038Z 07001KT 14/05 A3011 RMK A01 T01380054  RH  057%=      5-min Rain = 0
KMD1 180039Z 07002KT 14/06 A3011 RMK A01 T01360058  RH  059%=      5-min Rain = 0
KMD1 180040Z 07002KT 13/06 A3011 RMK A01 T01330059  RH  061%=      5-min Rain = 0
KMD1 180041Z 06001KT 13/06 A3011 RMK A01 T01310059  RH  062%=      5-min Rain = 0
KMD1 180042Z 06001KT 13/06 A3011 RMK A01 T01310059  RH  062%=      5-min Rain = 0
KMD1 180043Z 05002KT 13/06 A3011 RMK A01 T01320056  RH  060%=      5-min Rain = 0
KMD1 180044Z 05001KT 14/06 A3011 RMK A01 T01350057  RH  059%=      5-min Rain = 0
KMD1 180045Z 04001KT 14/06 A3011 RMK A01 T01360059  RH  060%=      5-min Rain = 0
KMD1 180046Z 04001KT 14/06 A3011 RMK A01 T01350062  RH  061%=      5-min Rain = 0
KMD1 180047Z 04002KT 13/06 A3011 RMK A01 T01340063  RH  062%=      5-min Rain = 0
KMD1 180048Z 03002KT 13/06 A3011 RMK A01 T01320062  RH  062%=      5-min Rain = 0
KMD1 180049Z 03002KT 13/06 A3011 RMK A01 T01320060  RH  062%=      5-min Rain = 0
KMD1 180050Z 03002KT 13/06 A3011 RMK A01 T01300062  RH  063%=      5-min Rain = 0
KMD1 180051Z 03002KT 13/06 A3011 RMK A01 T01290061  RH  063%=      5-min Rain = 0
KMD1 180052Z 04002KT 13/06 A3011 RMK A01 T01280060  RH  063%=      5-min Rain = 0
KMD1 180053Z 04001KT 13/06 A3011 RMK A01 T01270058  RH  063%=      5-min Rain = 0
KMD1 180054Z 04002KT 13/06 A3012 RMK A01 T01260056  RH  063%=      5-min Rain = 0
KMD1 180055Z 04001KT 13/06 A3012 RMK A01 T01260055  RH  062%=      5-min Rain = 0
KMD1 180056Z 04001KT 13/06 A3012 RMK A01 T01260055  RH  062%=      5-min Rain = 0
KMD1 180057Z 03001KT 12/06 A3012 RMK A01 T01240057  RH  064%=      5-min Rain = 0
KMD1 180058Z 02001KT 12/06 A3012 RMK A01 T01210056  RH  064%=      5-min Rain = 0
KMD1 180059Z 36002KT 12/06 A3012 RMK A01 T01190055  RH  065%=      5-min Rain = 0
KMD1 180100Z 33002KT 12/05 A3012 RMK A01 T01180050  RH  063%=      5-min Rain = 0
KMD1 180101Z 32002KT 12/05 A3012 RMK A01 T01180048  RH  062%=      5-min Rain = 0
KMD1 180102Z 32002KT 12/05 A3012 RMK A01 T01180051  RH  063%=      5-min Rain = 0
KMD1 180103Z 33001KT 12/05 A3012 RMK A01 T01180052  RH  064%=      5-min Rain = 0
KMD1 180104Z 34001KT 12/05 A3012 RMK A01 T01180051  RH  063%=      5-min Rain = 0
KMD1 180105Z 33001KT 12/05 A3012 RMK A01 T01190050  RH  062%=      5-min Rain = 0
KMD1 180106Z 31001KT 12/05 A3012 RMK A01 T01190049  RH  062%=      5-min Rain = 0
KMD1 180107Z 29000KT 12/05 A3012 RMK A01 T01180051  RH  063%=      5-min Rain = 0
KMD1 180108Z 00000KT 12/05 A3012 RMK A01 T01170053  RH  065%=      5-min Rain = 0
KMD1 180109Z 00000KT 12/06 A3012 RMK A01 T01160057  RH  067%=      5-min Rain = 0
KMD1 180110Z 23000KT 12/06 A3012 RMK A01 T01150057  RH  067%=      5-min Rain = 0
KMD1 180111Z 23002KT 11/06 A3012 RMK A01 T01140058  RH  069%=      5-min Rain = 0
KMD1 180112Z 23002KT 11/07 A3012 RMK A01 T01120066  RH  073%=      5-min Rain = 0
KMD1 180113Z 21002KT 11/07 A3012 RMK A01 T01100067  RH  075%=      5-min Rain = 0
KMD1 180114Z 20001KT 11/06 A3012 RMK A01 T01090064  RH  074%=      5-min Rain = 0
KMD1 180115Z 20001KT 11/06 A3012 RMK A01 T01080062  RH  074%=      5-min Rain = 0
KMD1 180116Z 21001KT 11/06 A3012 RMK A01 T01070061  RH  073%=      5-min Rain = 0
KMD1 180117Z 21001KT 11/06 A3012 RMK A01 T01070059  RH  073%=      5-min Rain = 0
KMD1 180118Z 21001KT 11/06 A3012 RMK A01 T01060056  RH  071%=      5-min Rain = 0
KMD1 180119Z 22001KT 11/05 A3012 RMK A01 T01050053  RH  070%=      5-min Rain = 0
KMD1 180120Z 22001KT 11/05 A3012 RMK A01 T01050053  RH  070%=      5-min Rain = 0
KMD1 180121Z 22001KT 11/05 A3012 RMK A01 T01050051  RH  069%=      5-min Rain = 0
KMD1 180122Z 22001KT 11/05 A3012 RMK A01 T01050050  RH  069%=      5-min Rain = 0
KMD1 180123Z 21001KT 11/05 A3012 RMK A01 T01050051  RH  069%=      5-min Rain = 0
KMD1 180124Z 21001KT 11/05 A3012 RMK A01 T01060051  RH  069%=      5-min Rain = 0
KMD1 180125Z 23001KT 11/05 A3012 RMK A01 T01070050  RH  068%=      5-min Rain = 0
KMD1 180126Z 27001KT 11/05 A3012 RMK A01 T01080049  RH  067%=      5-min Rain = 0
KMD1 180127Z 29001KT 11/05 A3012 RMK A01 T01100049  RH  066%=      5-min Rain = 0
KMD1 180128Z 29001KT 11/05 A3013 RMK A01 T01110049  RH  066%=      5-min Rain = 0
KMD1 180129Z 29001KT 11/05 A3013 RMK A01 T01110050  RH  066%=      5-min Rain = 0
KMD1 180130Z 30001KT 11/05 A3013 RMK A01 T01110050  RH  066%=      5-min Rain = 0
KMD1 180131Z 28001KT 11/05 A3013 RMK A01 T01110049  RH  066%=      5-min Rain = 0
KMD1 180132Z 28001KT 11/05 A3013 RMK A01 T01110048  RH  065%=      5-min Rain = 0
KMD1 180133Z 28001KT 11/05 A3013 RMK A01 T01110049  RH  065%=      5-min Rain = 0
KMD1 180134Z 27001KT 11/05 A3013 RMK A01 T01110047  RH  065%=      5-min Rain = 0
KMD1 180135Z 28001KT 11/05 A3013 RMK A01 T01100046  RH  065%=      5-min Rain = 0
KMD1 180136Z 26002KT 11/05 A3013 RMK A01 T01100047  RH  065%=      5-min Rain = 0
KMD1 180137Z 25002KT 11/05 A3013 RMK A01 T01100049  RH  066%=      5-min Rain = 0
KMD1 180138Z 24002KT 11/05 A3013 RMK A01 T01100049  RH  066%=      5-min Rain = 0
KMD1 180139Z 25002KT 11/05 A3013 RMK A01 T01090048  RH  066%=      5-min Rain = 0
KMD1 180140Z 24002KT 11/05 A3013 RMK A01 T01090048  RH  066%=      5-min Rain = 0
KMD1 180141Z 24002KT 11/05 A3013 RMK A01 T01090048  RH  066%=      5-min Rain = 0
KMD1 180142Z 24003KT 11/05 A3013 RMK A01 T01100048  RH  066%=      5-min Rain = 0
KMD1 180143Z 24003KT 11/05 A3013 RMK A01 T01100048  RH  066%=      5-min Rain = 0
KMD1 180144Z 24002KT 11/05 A3013 RMK A01 T01100048  RH  066%=      5-min Rain = 0
KMD1 180145Z 25001KT 11/05 A3013 RMK A01 T01100048  RH  066%=      5-min Rain = 0
KMD1 180146Z 26001KT 11/05 A3013 RMK A01 T01090047  RH  065%=      5-min Rain = 0
KMD1 180147Z 26001KT 11/05 A3013 RMK A01 T01100047  RH  065%=      5-min Rain = 0
KMD1 180148Z 29000KT 11/05 A3013 RMK A01 T01100047  RH  065%=      5-min Rain = 0
KMD1 180149Z 31000KT 11/05 A3013 RMK A01 T01070047  RH  067%=      5-min Rain = 0
KMD1 180150Z 00000KT 10/05 A3013 RMK A01 T01030047  RH  068%=      5-min Rain = 0
KMD1 180151Z 00000KT 10/05 A3013 RMK A01 T01000048  RH  070%=      5-min Rain = 0
KMD1 180152Z 00000KT 10/05 A3013 RMK A01 T00990048  RH  071%=      5-min Rain = 0
KMD1 180153Z 00000KT 10/05 A3013 RMK A01 T00990049  RH  071%=      5-min Rain = 0
KMD1 180154Z 34000KT 10/05 A3013 RMK A01 T00980050  RH  072%=      5-min Rain = 0
KMD1 180155Z 00000KT 10/05 A3013 RMK A01 T00980050  RH  072%=      5-min Rain = 0
KMD1 180156Z 03000KT 10/05 A3013 RMK A01 T00970049  RH  072%=      5-min Rain = 0
KMD1 180157Z 06000KT 10/05 A3013 RMK A01 T00970050  RH  072%=      5-min Rain = 0
KMD1 180158Z 00000KT 10/05 A3013 RMK A01 T00950051  RH  074%=      5-min Rain = 0
KMD1 180159Z 00000KT 09/05 A3013 RMK A01 T00930050  RH  074%=      5-min Rain = 0
KMD1 180200Z 00000KT 09/05 A3013 RMK A01 T00920050  RH  075%=      5-min Rain = 0
KMD1 180201Z 00000KT 09/05 A3013 RMK A01 T00920050  RH  075%=      5-min Rain = 0
KMD1 180202Z 33000KT 10/05 A3013 RMK A01 T00950048  RH  073%=      5-min Rain = 0
KMD1 180203Z 33000KT 10/05 A3013 RMK A01 T00980049  RH  072%=      5-min Rain = 0
KMD1 180204Z 35001KT 10/05 A3013 RMK A01 T00990049  RH  071%=      5-min Rain = 0
KMD1 180205Z 01001KT 10/05 A3013 RMK A01 T00980048  RH  071%=      5-min Rain = 0
KMD1 180206Z 35001KT 10/05 A3013 RMK A01 T00950048  RH  073%=      5-min Rain = 0
KMD1 180207Z 35001KT 09/05 A3013 RMK A01 T00930048  RH  074%=      5-min Rain = 0
KMD1 180208Z 36001KT 09/05 A3013 RMK A01 T00900048  RH  075%=      5-min Rain = 0
KMD1 180209Z 34001KT 09/05 A3012 RMK A01 T00890048  RH  075%=      5-min Rain = 0
KMD1 180210Z 32002KT 09/05 A3012 RMK A01 T00890048  RH  075%=      5-min Rain = 0
KMD1 180211Z 31002KT 09/05 A3012 RMK A01 T00900047  RH  074%=      5-min Rain = 0
KMD1 180212Z 33001KT 09/05 A3012 RMK A01 T00890046  RH  075%=      5-min Rain = 0
KMD1 180213Z 32001KT 09/05 A3013 RMK A01 T00870046  RH  075%=      5-min Rain = 0
KMD1 180214Z 31001KT 09/05 A3013 RMK A01 T00870046  RH  076%=      5-min Rain = 0
KMD1 180215Z 26000KT 09/05 A3013 RMK A01 T00870047  RH  076%=      5-min Rain = 0
KMD1 180216Z 25001KT 09/05 A3013 RMK A01 T00870047  RH  076%=      5-min Rain = 0
KMD1 180217Z 25001KT 09/05 A3012 RMK A01 T00860047  RH  076%=      5-min Rain = 0
KMD1 180218Z 25000KT 09/05 A3012 RMK A01 T00860047  RH  076%=      5-min Rain = 0
KMD1 180219Z 29001KT 09/05 A3012 RMK A01 T00870047  RH  076%=      5-min Rain = 0
KMD1 180220Z 31001KT 09/05 A3012 RMK A01 T00870046  RH  076%=      5-min Rain = 0
KMD1 180221Z 31002KT 09/05 A3012 RMK A01 T00880047  RH  075%=      5-min Rain = 0
KMD1 180222Z 30002KT 09/05 A3012 RMK A01 T00900048  RH  075%=      5-min Rain = 0
KMD1 180223Z 29002KT 09/05 A3012 RMK A01 T00920048  RH  074%=      5-min Rain = 0
KMD1 180224Z 28002KT 09/05 A3012 RMK A01 T00920048  RH  074%=      5-min Rain = 0
KMD1 180225Z 27002KT 09/05 A3012 RMK A01 T00920047  RH  074%=      5-min Rain = 0
KMD1 180226Z 25001KT 09/05 A3012 RMK A01 T00920048  RH  074%=      5-min Rain = 0
KMD1 180227Z 24002KT 09/05 A3012 RMK A01 T00910048  RH  074%=      5-min Rain = 0
KMD1 180228Z 23002KT 09/05 A3012 RMK A01 T00900047  RH  074%=      5-min Rain = 0
KMD1 180229Z 23002KT 09/05 A3012 RMK A01 T00900048  RH  075%=      5-min Rain = 0
KMD1 180230Z 23002KT 09/05 A3012 RMK A01 T00920051  RH  075%=      5-min Rain = 0
KMD1 180231Z 24002KT 09/05 A3012 RMK A01 T00930052  RH  075%=      5-min Rain = 0
KMD1 180232Z 24002KT 09/05 A3012 RMK A01 T00940051  RH  075%=      5-min Rain = 0
KMD1 180233Z 25002KT 09/05 A3012 RMK A01 T00940051  RH  074%=      5-min Rain = 0
KMD1 180234Z 25001KT 10/05 A3012 RMK A01 T00950051  RH  074%=      5-min Rain = 0
KMD1 180235Z 26001KT 10/05 A3012 RMK A01 T00950052  RH  074%=      5-min Rain = 0
KMD1 180236Z 26001KT 09/05 A3012 RMK A01 T00930050  RH  075%=      5-min Rain = 0
KMD1 180237Z 25002KT 09/05 A3012 RMK A01 T00890049  RH  076%=      5-min Rain = 0
KMD1 180238Z 25002KT 09/05 A3012 RMK A01 T00860049  RH  077%=      5-min Rain = 0
KMD1 180239Z 25001KT 08/05 A3012 RMK A01 T00840049  RH  079%=      5-min Rain = 0
KMD1 180240Z 25001KT 08/05 A3012 RMK A01 T00840049  RH  079%=      5-min Rain = 0
KMD1 180241Z 26001KT 08/05 A3012 RMK A01 T00830048  RH  079%=      5-min Rain = 0
KMD1 180242Z 27001KT 08/05 A3012 RMK A01 T00820049  RH  080%=      5-min Rain = 0
KMD1 180243Z 29001KT 08/05 A3012 RMK A01 T00820050  RH  080%=      5-min Rain = 0
KMD1 180244Z 30000KT 09/05 A3012 RMK A01 T00860050  RH  078%=      5-min Rain = 0
KMD1 180245Z 31000KT 09/05 A3012 RMK A01 T00890049  RH  076%=      5-min Rain = 0
KMD1 180246Z 00000KT 09/05 A3012 RMK A01 T00900046  RH  074%=      5-min Rain = 0
KMD1 180247Z 00000KT 09/04 A3012 RMK A01 T00880044  RH  074%=      5-min Rain = 0
KMD1 180248Z 31000KT 09/04 A3012 RMK A01 T00860044  RH  075%=      5-min Rain = 0
KMD1 180249Z 00000KT 08/04 A3012 RMK A01 T00830043  RH  076%=      5-min Rain = 0
KMD1 180250Z 00000KT 08/04 A3012 RMK A01 T00800042  RH  077%=      5-min Rain = 0
KMD1 180251Z 20000KT 08/04 A3012 RMK A01 T00780043  RH  078%=      5-min Rain = 0
KMD1 180252Z 21000KT 08/04 A3012 RMK A01 T00770043  RH  079%=      5-min Rain = 0
KMD1 180253Z 00000KT 08/04 A3012 RMK A01 T00760043  RH  079%=      5-min Rain = 0
KMD1 180254Z 00000KT 08/04 A3012 RMK A01 T00750042  RH  080%=      5-min Rain = 0
KMD1 180255Z 00000KT 08/04 A3012 RMK A01 T00750044  RH  081%=      5-min Rain = 0
KMD1 180256Z 20001KT 08/04 A3012 RMK A01 T00750044  RH  081%=      5-min Rain = 0
KMD1 180257Z 20001KT 08/04 A3012 RMK A01 T00750044  RH  081%=      5-min Rain = 0
KMD1 180258Z 19001KT 08/05 A3012 RMK A01 T00760045  RH  081%=      5-min Rain = 0
KMD1 180259Z 19001KT 08/05 A3012 RMK A01 T00760045  RH  081%=      5-min Rain = 0
KMD1 180300Z 20001KT 08/04 A3012 RMK A01 T00760044  RH  081%=      5-min Rain = 0
KMD1 180301Z 21002KT 08/05 A3012 RMK A01 T00760045  RH  081%=      5-min Rain = 0
KMD1 180302Z 22002KT 08/05 A3012 RMK A01 T00750046  RH  082%=      5-min Rain = 0
KMD1 180303Z 23002KT 08/05 A3012 RMK A01 T00760047  RH  082%=      5-min Rain = 0
KMD1 180304Z 23002KT 08/05 A3012 RMK A01 T00770048  RH  082%=      5-min Rain = 0
KMD1 180305Z 24002KT 08/05 A3012 RMK A01 T00780048  RH  081%=      5-min Rain = 0
KMD1 180306Z 24002KT 08/05 A3012 RMK A01 T00790048  RH  081%=      5-min Rain = 0
KMD1 180307Z 24002KT 08/05 A3012 RMK A01 T00790047  RH  080%=      5-min Rain = 0
KMD1 180308Z 24002KT 08/05 A3012 RMK A01 T00790046  RH  079%=      5-min Rain = 0
KMD1 180309Z 24002KT 08/05 A3012 RMK A01 T00790045  RH  079%=      5-min Rain = 0
KMD1 180310Z 25002KT 08/04 A3012 RMK A01 T00770044  RH  079%=      5-min Rain = 0
KMD1 180311Z 25002KT 08/04 A3012 RMK A01 T00750044  RH  081%=      5-min Rain = 0
KMD1 180312Z 25002KT 07/05 A3012 RMK A01 T00740045  RH  082%=      5-min Rain = 0
KMD1 180313Z 25002KT 07/05 A3012 RMK A01 T00740046  RH  082%=      5-min Rain = 0
KMD1 180314Z 25002KT 07/05 A3012 RMK A01 T00740046  RH  083%=      5-min Rain = 0
KMD1 180315Z 26002KT 07/05 A3012 RMK A01 T00740045  RH  082%=      5-min Rain = 0
KMD1 180316Z 27002KT 08/05 A3012 RMK A01 T00750045  RH  081%=      5-min Rain = 0
KMD1 180317Z 27002KT 08/05 A3012 RMK A01 T00750045  RH  081%=      5-min Rain = 0
KMD1 180318Z 28002KT 08/05 A3012 RMK A01 T00750045  RH  082%=      5-min Rain = 0
KMD1 180319Z 29002KT 08/05 A3012 RMK A01 T00750045  RH  082%=      5-min Rain = 0
KMD1 180320Z 30002KT 08/05 A3012 RMK A01 T00750045  RH  081%=      5-min Rain = 0
KMD1 180321Z 29001KT 07/04 A3012 RMK A01 T00740043  RH  081%=      5-min Rain = 0
KMD1 180322Z 29002KT 07/04 A3012 RMK A01 T00740044  RH  081%=      5-min Rain = 0
KMD1 180323Z 28002KT 08/05 A3011 RMK A01 T00750045  RH  081%=      5-min Rain = 0
KMD1 180324Z 27003KT 08/05 A3011 RMK A01 T00780047  RH  080%=      5-min Rain = 0
KMD1 180325Z 27003KT 08/05 A3011 RMK A01 T00800047  RH  080%=      5-min Rain = 0
KMD1 180326Z 26004KT 08/05 A3011 RMK A01 T00820047  RH  079%=      5-min Rain = 0
KMD1 180327Z 25003KT 08/05 A3011 RMK A01 T00840047  RH  078%=      5-min Rain = 0
KMD1 180328Z 25003KT 09/05 A3011 RMK A01 T00860047  RH  077%=      5-min Rain = 0
KMD1 180329Z 25004KT 09/05 A3011 RMK A01 T00870047  RH  076%=      5-min Rain = 0
KMD1 180330Z 25004KT 09/05 A3011 RMK A01 T00880048  RH  076%=      5-min Rain = 0
KMD1 180331Z 24004KT 09/05 A3011 RMK A01 T00900049  RH  075%=      5-min Rain = 0
KMD1 180332Z 24003KT 09/05 A3011 RMK A01 T00910049  RH  075%=      5-min Rain = 0
KMD1 180333Z 24004KT 09/05 A3011 RMK A01 T00910049  RH  075%=      5-min Rain = 0
KMD1 180334Z 24003KT 09/05 A3011 RMK A01 T00900049  RH  075%=      5-min Rain = 0
KMD1 180335Z 24003KT 09/05 A3011 RMK A01 T00900049  RH  076%=      5-min Rain = 0
KMD1 180336Z 23004KT 09/05 A3011 RMK A01 T00890048  RH  076%=      5-min Rain = 0
KMD1 180337Z 23004KT 09/05 A3011 RMK A01 T00880048  RH  076%=      5-min Rain = 0
KMD1 180338Z 23004KT 09/05 A3011 RMK A01 T00880048  RH  076%=      5-min Rain = 0
KMD1 180339Z 23004KT 09/05 A3011 RMK A01 T00870047  RH  076%=      5-min Rain = 0
KMD1 180340Z 23005KT 09/05 A301 RMK A01 T00860047  RH  077%=      5-min Rain = 0
KMD1 180341Z 23005KT 09/05 A301 RMK A01 T00850047  RH  077%=      5-min Rain = 0
KMD1 180342Z 22004KT 08/05 A301 RMK A01 T00830047  RH  078%=      5-min Rain = 0
KMD1 180343Z 23004KT 08/05 A301 RMK A01 T00820047  RH  079%=      5-min Rain = 0
KMD1 180344Z 23005KT 08/05 A301 RMK A01 T00800047  RH  079%=      5-min Rain = 0
KMD1 180345Z 23004KT 08/05 A301 RMK A01 T00790046  RH  080%=      5-min Rain = 0
KMD1 180346Z 23004KT 08/05 A301 RMK A01 T00780046  RH  080%=      5-min Rain = 0
KMD1 180347Z 23004KT 08/05 A301 RMK A01 T00780046  RH  080%=      5-min Rain = 0
KMD1 180348Z 22004KT 08/05 A301 RMK A01 T00780047  RH  081%=      5-min Rain = 0
KMD1 180349Z 21002KT 08/05 A301 RMK A01 T00770046  RH  081%=      5-min Rain = 0
KMD1 180350Z 21002KT 08/05 A301 RMK A01 T00770045  RH  081%=      5-min Rain = 0
KMD1 180351Z 21002KT 08/04 A301 RMK A01 T00760044  RH  081%=      5-min Rain = 0
KMD1 180352Z 22001KT 07/04 A301 RMK A01 T00730043  RH  081%=      5-min Rain = 0
KMD1 180353Z 23001KT 07/04 A301 RMK A01 T00720043  RH  082%=      5-min Rain = 0
KMD1 180354Z 22001KT 07/04 A301 RMK A01 T00700043  RH  083%=      5-min Rain = 0
KMD1 180355Z 23001KT 07/04 A301 RMK A01 T00700043  RH  083%=      5-min Rain = 0
KMD1 180356Z 22001KT 07/04 A301 RMK A01 T00690043  RH  084%=      5-min Rain = 0
KMD1 180357Z 23001KT 07/04 A301 RMK A01 T00690044  RH  084%=      5-min Rain = 0
KMD1 180358Z 25001KT 07/04 A301 RMK A01 T00690044  RH  084%=      5-min Rain = 0
KMD1 180359Z 25001KT 07/04 A301 RMK A01 T00700044  RH  084%=      5-min Rain = 0
KMD1 180400Z 23001KT 07/04 A301 RMK A01 T00690042  RH  083%=      5-min Rain = 0
KMD1 180401Z 24000KT 07/04 A301 RMK A01 T00680043  RH  084%=      5-min Rain = 0
KMD1 180402Z 25000KT 07/04 A301 RMK A01 T00680043  RH  084%=      5-min Rain = 0
KMD1 180403Z 00000KT 07/04 A301 RMK A01 T00670043  RH  085%=      5-min Rain = 0
KMD1 180404Z 00000KT 07/04 A301 RMK A01 T00670043  RH  085%=      5-min Rain = 0
KMD1 180405Z 00000KT 07/04 A301 RMK A01 T00660043  RH  085%=      5-min Rain = 0
KMD1 180406Z 24000KT 07/04 A301 RMK A01 T00660043  RH  085%=      5-min Rain = 0
KMD1 180407Z 24000KT 07/04 A301 RMK A01 T00660044  RH  085%=      5-min Rain = 0
KMD1 180408Z 25001KT 07/04 A301 RMK A01 T00660044  RH  086%=      5-min Rain = 0
KMD1 180409Z 25001KT 07/04 A301 RMK A01 T00660044  RH  086%=      5-min Rain = 0
KMD1 180410Z 24000KT 07/05 A301 RMK A01 T00670045  RH  086%=      5-min Rain = 0
KMD1 180411Z 24000KT 07/05 A301 RMK A01 T00670045  RH  086%=      5-min Rain = 0
KMD1 180412Z 24001KT 07/05 A301 RMK A01 T00670045  RH  086%=      5-min Rain = 0
KMD1 180413Z 25001KT 07/05 A301 RMK A01 T00670045  RH  086%=      5-min Rain = 0
KMD1 180414Z 25001KT 07/05 A301 RMK A01 T00680045  RH  085%=      5-min Rain = 0
KMD1 180415Z 25001KT 07/05 A301 RMK A01 T00690045  RH  085%=      5-min Rain = 0
KMD1 180416Z 25001KT 07/05 A301 RMK A01 T00700045  RH  084%=      5-min Rain = 0
KMD1 180417Z 27000KT 07/05 A301 RMK A01 T00700045  RH  084%=      5-min Rain = 0
KMD1 180418Z 26000KT 07/04 A301 RMK A01 T00700044  RH  084%=      5-min Rain = 0
KMD1 180419Z 26001KT 07/04 A301 RMK A01 T00700044  RH  083%=      5-min Rain = 0
KMD1 180420Z 26000KT 07/04 A3011 RMK A01 T00700044  RH  083%=      5-min Rain = 0
KMD1 180421Z 25001KT 07/04 A3011 RMK A01 T00690043  RH  083%=      5-min Rain = 0
KMD1 180422Z 25001KT 07/04 A3011 RMK A01 T00690043  RH  083%=      5-min Rain = 0
KMD1 180423Z 25001KT 07/04 A3011 RMK A01 T00690043  RH  083%=      5-min Rain = 0
KMD1 180424Z 00000KT 07/04 A3011 RMK A01 T00690043  RH  083%=      5-min Rain = 0
KMD1 180425Z 22000KT 07/04 A3011 RMK A01 T00690043  RH  083%=      5-min Rain = 0
KMD1 180426Z 23001KT 07/04 A3011 RMK A01 T00680042  RH  083%=      5-min Rain = 0
KMD1 180427Z 21001KT 07/04 A3011 RMK A01 T00680042  RH  084%=      5-min Rain = 0
KMD1 180428Z 18001KT 07/04 A3011 RMK A01 T00670042  RH  084%=      5-min Rain = 0
KMD1 180429Z 18000KT 07/04 A3011 RMK A01 T00670042  RH  084%=      5-min Rain = 0
KMD1 180430Z 19001KT 07/04 A3011 RMK A01 T00670042  RH  084%=      5-min Rain = 0
KMD1 180431Z 00000KT 07/04 A3011 RMK A01 T00670042  RH  084%=      5-min Rain = 0
KMD1 180432Z 00000KT 07/04 A3011 RMK A01 T00670042  RH  084%=      5-min Rain = 0
KMD1 180433Z 00000KT 07/04 A3011 RMK A01 T00670043  RH  085%=      5-min Rain = 0
KMD1 180434Z 00000KT 07/04 A3011 RMK A01 T00670043  RH  085%=      5-min Rain = 0
KMD1 180435Z 00000KT 07/04 A3011 RMK A01 T00670042  RH  084%=      5-min Rain = 0
KMD1 180436Z 00000KT 07/04 A3011 RMK A01 T00660042  RH  084%=      5-min Rain = 0
KMD1 180437Z 00000KT 07/04 A3011 RMK A01 T00660041  RH  084%=      5-min Rain = 0
KMD1 180438Z 00000KT 06/04 A301 RMK A01 T00640037  RH  083%=      5-min Rain = 0
KMD1 180439Z 00000KT 06/03 A301 RMK A01 T00610034  RH  083%=      5-min Rain = 0
KMD1 180440Z 00000KT 06/03 A301 RMK A01 T00580033  RH  084%=      5-min Rain = 0
KMD1 180441Z 00000KT 06/03 A301 RMK A01 T00570034  RH  085%=      5-min Rain = 0
KMD1 180442Z 00000KT 06/04 A301 RMK A01 T00570035  RH  086%=      5-min Rain = 0
KMD1 180443Z 00000KT 06/04 A301 RMK A01 T00560035  RH  086%=      5-min Rain = 0
KMD1 180444Z 04000KT 06/04 A301 RMK A01 T00550035  RH  087%=      5-min Rain = 0
KMD1 180445Z 00000KT 05/04 A301 RMK A01 T00540035  RH  087%=      5-min Rain = 0
KMD1 180446Z 00000KT 05/04 A301 RMK A01 T00540035  RH  088%=      5-min Rain = 0
KMD1 180447Z 00000KT 05/04 A301 RMK A01 T00540036  RH  088%=      5-min Rain = 0
KMD1 180448Z 00000KT 06/04 A301 RMK A01 T00550036  RH  088%=      5-min Rain = 0
KMD1 180449Z 00000KT 06/04 A301 RMK A01 T00550036  RH  087%=      5-min Rain = 0
KMD1 180450Z 00000KT 06/04 A301 RMK A01 T00550036  RH  087%=      5-min Rain = 0
KMD1 180451Z 00000KT 06/04 A301 RMK A01 T00550036  RH  087%=      5-min Rain = 0
KMD1 180452Z 00000KT 06/04 A301 RMK A01 T00550036  RH  087%=      5-min Rain = 0
KMD1 180453Z 00000KT 06/04 A301 RMK A01 T00550036  RH  088%=      5-min Rain = 0
KMD1 180454Z 00000KT 06/04 A301 RMK A01 T00550036  RH  088%=      5-min Rain = 0
KMD1 180455Z 00000KT 05/04 A301 RMK A01 T00540035  RH  087%=      5-min Rain = 0
KMD1 180456Z 00000KT 05/04 A301 RMK A01 T00540036  RH  088%=      5-min Rain = 0
KMD1 180457Z 00000KT 06/04 A301 RMK A01 T00550036  RH  088%=      5-min Rain = 0
KMD1 180458Z 00000KT 06/04 A301 RMK A01 T00550036  RH  087%=      5-min Rain = 0
KMD1 180459Z 00000KT 06/04 A301 RMK A01 T00550036  RH  087%=      5-min Rain = 0
KMD1 180500Z 00000KT 06/04 A301 RMK A01 T00550035  RH  087%=      5-min Rain = 0
KMD1 180501Z 00000KT 05/04 A301 RMK A01 T00540036  RH  088%=      5-min Rain = 0
KMD1 180502Z 00000KT 05/04 A301 RMK A01 T00540037  RH  089%=      5-min Rain = 0
KMD1 180503Z 00000KT 06/04 A301 RMK A01 T00550039  RH  089%=      5-min Rain = 0
KMD1 180504Z 00000KT 06/04 A301 RMK A01 T00560040  RH  090%=      5-min Rain = 0
KMD1 180505Z 00000KT 06/04 A301 RMK A01 T00560040  RH  089%=      5-min Rain = 0
KMD1 180506Z 00000KT 06/04 A301 RMK A01 T00570039  RH  088%=      5-min Rain = 0
KMD1 180507Z 00000KT 06/04 A301 RMK A01 T00570037  RH  087%=      5-min Rain = 0
KMD1 180508Z 00000KT 06/04 A301 RMK A01 T00560035  RH  087%=      5-min Rain = 0
KMD1 180509Z 00000KT 06/04 A301 RMK A01 T00560035  RH  087%=      5-min Rain = 0
KMD1 180510Z 00000KT 06/03 A3011 RMK A01 T00550034  RH  087%=      5-min Rain = 0
KMD1 180511Z 00000KT 06/03 A3011 RMK A01 T00550034  RH  087%=      5-min Rain = 0
KMD1 180512Z 00000KT 05/03 A3011 RMK A01 T00540034  RH  087%=      5-min Rain = 0
KMD1 180513Z 25001KT 05/03 A3011 RMK A01 T00540033  RH  087%=      5-min Rain = 0
KMD1 180514Z 24001KT 05/03 A3011 RMK A01 T00540034  RH  087%=      5-min Rain = 0
KMD1 180515Z 22002KT 05/04 A3011 RMK A01 T00530035  RH  088%=      5-min Rain = 0
KMD1 180516Z 21003KT 05/04 A3011 RMK A01 T00540038  RH  089%=      5-min Rain = 0
KMD1 180517Z 21004KT 05/04 A3011 RMK A01 T00540039  RH  090%=      5-min Rain = 0
KMD1 180518Z 20005KT 05/04 A3011 RMK A01 T00540037  RH  089%=      5-min Rain = 0
KMD1 180519Z 20004KT 05/04 A3011 RMK A01 T00520035  RH  089%=      5-min Rain = 0
KMD1 180520Z 20003KT 05/04 A3011 RMK A01 T00510035  RH  089%=      5-min Rain = 0
KMD1 180521Z 22003KT 05/04 A3011 RMK A01 T00510036  RH  090%=      5-min Rain = 0
KMD1 180522Z 23004KT 05/04 A3011 RMK A01 T00510037  RH  091%=      5-min Rain = 0
KMD1 180523Z 23003KT 05/04 A3011 RMK A01 T00510037  RH  091%=      5-min Rain = 0
KMD1 180524Z 24003KT 05/04 A3011 RMK A01 T00510038  RH  091%=      5-min Rain = 0
KMD1 180525Z 25002KT 05/04 A3011 RMK A01 T00500037  RH  091%=      5-min Rain = 0
KMD1 180526Z 25002KT 05/04 A3011 RMK A01 T00480035  RH  091%=      5-min Rain = 0
KMD1 180527Z 26003KT 05/04 A3011 RMK A01 T00480035  RH  092%=      5-min Rain = 0
KMD1 180528Z 26003KT 05/04 A3011 RMK A01 T00480037  RH  093%=      5-min Rain = 0
KMD1 180529Z 27003KT 05/04 A3011 RMK A01 T00480037  RH  093%=      5-min Rain = 0
KMD1 180530Z 26004KT 05/04 A3011 RMK A01 T00480038  RH  093%=      5-min Rain = 0
KMD1 180531Z 26004KT 05/04 A3011 RMK A01 T00480039  RH  094%=      5-min Rain = 0
KMD1 180532Z 25003KT 05/04 A3011 RMK A01 T00490040  RH  094%=      5-min Rain = 0
KMD1 180533Z 25003KT 05/04 A3011 RMK A01 T00500041  RH  094%=      5-min Rain = 0
KMD1 180534Z 24003KT 05/04 A3011 RMK A01 T00500040  RH  093%=      5-min Rain = 0
KMD1 180535Z 26003KT 05/04 A3011 RMK A01 T00510040  RH  093%=      5-min Rain = 0
KMD1 180536Z 27002KT 05/04 A3011 RMK A01 T00510040  RH  093%=      5-min Rain = 0
KMD1 180537Z 28002KT 05/04 A3011 RMK A01 T00510040  RH  092%=      5-min Rain = 0
KMD1 180538Z 28002KT 05/04 A3011 RMK A01 T00520041  RH  092%=      5-min Rain = 0
KMD1 180539Z 31002KT 05/04 A3011 RMK A01 T00530041  RH  092%=      5-min Rain = 0
KMD1 180540Z 30002KT 05/04 A3011 RMK A01 T00540042  RH  092%=      5-min Rain = 0
KMD1 180541Z 31002KT 06/04 A3011 RMK A01 T00550042  RH  091%=      5-min Rain = 0
KMD1 180542Z 31002KT 06/04 A3011 RMK A01 T00560041  RH  090%=      5-min Rain = 0
KMD1 180543Z 30001KT 06/04 A3011 RMK A01 T00560040  RH  090%=      5-min Rain = 0
KMD1 180544Z 30001KT 06/04 A3011 RMK A01 T00560039  RH  089%=      5-min Rain = 0
KMD1 180545Z 31001KT 05/04 A3011 RMK A01 T00540036  RH  089%=      5-min Rain = 0
KMD1 180546Z 28000KT 05/04 A3011 RMK A01 T00520035  RH  089%=      5-min Rain = 0
KMD1 180547Z 25001KT 05/04 A3011 RMK A01 T00520035  RH  089%=      5-min Rain = 0
KMD1 180548Z 25001KT 05/04 A3011 RMK A01 T00510035  RH  089%=      5-min Rain = 0
KMD1 180549Z 26002KT 05/04 A3011 RMK A01 T00510035  RH  090%=      5-min Rain = 0
KMD1 180550Z 26002KT 05/04 A3011 RMK A01 T00510036  RH  090%=      5-min Rain = 0
KMD1 180551Z 26002KT 05/04 A301 RMK A01 T00510036  RH  090%=      5-min Rain = 0
KMD1 180552Z 26002KT 05/04 A301 RMK A01 T00520037  RH  090%=      5-min Rain = 0
KMD1 180553Z 26002KT 05/04 A301 RMK A01 T00530039  RH  091%=      5-min Rain = 0
KMD1 180554Z 26002KT 05/04 A301 RMK A01 T00530039  RH  091%=      5-min Rain = 0
KMD1 180555Z 25001KT 05/04 A301 RMK A01 T00540040  RH  091%=      5-min Rain = 0
KMD1 180556Z 27001KT 05/04 A301 RMK A01 T00540040  RH  091%=      5-min Rain = 0
KMD1 180557Z 27001KT 05/04 A301 RMK A01 T00540040  RH  090%=      5-min Rain = 0
KMD1 180558Z 29000KT 05/04 A301 RMK A01 T00540040  RH  090%=      5-min Rain = 0
KMD1 180559Z 29000KT 05/04 A301 RMK A01 T00530039  RH  090%=      5-min Rain = 0

Page generated in 0.1546 seconds.